Observation data for Palo Duro Canyon State Park Floor on 01/10/2018      Previous  Date  Next       Current Mesonet Observations  Soil Data  Daily Summary Page  Observations in Plain Language
KPD2 100600Z 00004KT 11/M02 A2981 RMK A01 T01051018  RH  042%=      5-min Rain = 0
KPD2 100601Z 35004KT 10/M02 A2981 RMK A01 T01041018  RH  043%=      5-min Rain = 0
KPD2 100602Z 34003KT 10/M02 A298 RMK A01 T01031018  RH  043%=      5-min Rain = 0
KPD2 100603Z 35004KT 10/M02 A298 RMK A01 T01021019  RH  043%=      5-min Rain = 0
KPD2 100604Z 35004KT 10/M02 A298 RMK A01 T01011018  RH  043%=      5-min Rain = 0
KPD2 100605Z 32003KT 10/M02 A298 RMK A01 T01011018  RH  043%=      5-min Rain = 0
KPD2 100606Z 27002KT 10/M02 A298 RMK A01 T01001019  RH  043%=      5-min Rain = 0
KPD2 100607Z 26003KT 10/M02 A298 RMK A01 T00991020  RH  043%=      5-min Rain = 0
KPD2 100608Z 26002KT 10/M02 A298 RMK A01 T00971021  RH  044%=      5-min Rain = 0
KPD2 100609Z 29000KT 10/M02 A298 RMK A01 T00971019  RH  044%=      5-min Rain = 0
KPD2 100610Z 14000KT 10/M02 A298 RMK A01 T00961019  RH  044%=      5-min Rain = 0
KPD2 100611Z 14001KT 10/M02 A2979 RMK A01 T00961019  RH  045%=      5-min Rain = 0
KPD2 100612Z 18001KT 10/M02 A298 RMK A01 T00951019  RH  045%=      5-min Rain = 0
KPD2 100613Z 10001KT 10/M02 A2979 RMK A01 T00961018  RH  045%=      5-min Rain = 0
KPD2 100614Z 09001KT 10/M02 A2979 RMK A01 T00971018  RH  044%=      5-min Rain = 0
KPD2 100615Z 18001KT 10/M02 A298 RMK A01 T00971019  RH  044%=      5-min Rain = 0
KPD2 100616Z 23000KT 10/M02 A298 RMK A01 T00961019  RH  045%=      5-min Rain = 0
KPD2 100617Z 07001KT 10/M02 A2979 RMK A01 T00951018  RH  045%=      5-min Rain = 0
KPD2 100618Z 07000KT 10/M02 A2979 RMK A01 T00951019  RH  045%=      5-min Rain = 0
KPD2 100619Z 06002KT 10/M02 A2979 RMK A01 T00961018  RH  045%=      5-min Rain = 0
KPD2 100620Z 07000KT 10/M02 A2979 RMK A01 T00961018  RH  045%=      5-min Rain = 0
KPD2 100621Z 01003KT 10/M02 A2979 RMK A01 T00971018  RH  045%=      5-min Rain = 0
KPD2 100622Z 00001KT 10/M02 A2979 RMK A01 T00971018  RH  045%=      5-min Rain = 0
KPD2 100623Z 26000KT 10/M02 A2979 RMK A01 T00981018  RH  044%=      5-min Rain = 0
KPD2 100624Z 33001KT 10/M02 A2979 RMK A01 T00981017  RH  045%=      5-min Rain = 0
KPD2 100625Z 31001KT 10/M02 A2979 RMK A01 T00981018  RH  044%=      5-min Rain = 0
KPD2 100626Z 24001KT 10/M02 A2979 RMK A01 T00981018  RH  044%=      5-min Rain = 0
KPD2 100627Z 05003KT 10/M02 A2979 RMK A01 T00981018  RH  044%=      5-min Rain = 0
KPD2 100628Z 07002KT 10/M02 A2979 RMK A01 T00981019  RH  044%=      5-min Rain = 0
KPD2 100629Z 14002KT 10/M02 A2979 RMK A01 T00981019  RH  044%=      5-min Rain = 0
KPD2 100630Z 14003KT 10/M02 A2979 RMK A01 T00981019  RH  044%=      5-min Rain = 0
KPD2 100631Z 11003KT 10/M02 A2979 RMK A01 T00981019  RH  044%=      5-min Rain = 0
KPD2 100632Z 10004KT 10/M02 A2979 RMK A01 T00991019  RH  044%=      5-min Rain = 0
KPD2 100633Z 07003KT 10/M02 A2979 RMK A01 T01001018  RH  044%=      5-min Rain = 0
KPD2 100634Z 06001KT 10/M02 A2979 RMK A01 T01021017  RH  043%=      5-min Rain = 0
KPD2 100635Z 07002KT 11/M02 A2979 RMK A01 T01051016  RH  043%=      5-min Rain = 0
KPD2 100636Z 13004KT 11/M01 A2978 RMK A01 T01101014  RH  042%=      5-min Rain = 0
KPD2 100637Z 13003KT 12/M01 A2978 RMK A01 T01171010  RH  042%=      5-min Rain = 0
KPD2 100638Z 19003KT 12/M01 A2978 RMK A01 T01221009  RH  040%=      5-min Rain = 0
KPD2 100639Z 20002KT 13/M00 A2978 RMK A01 T01281004  RH  040%=      5-min Rain = 0
KPD2 100640Z 17003KT 14/M00 A2978 RMK A01 T01371002  RH  039%=      5-min Rain = 0
KPD2 100641Z 22007KT 14/M01 A2978 RMK A01 T01401005  RH  037%=      5-min Rain = 0
KPD2 100642Z 25007G13KT 14/M00 A2978 RMK A01 T01421003  RH  037%=      5-min Rain = 0
KPD2 100643Z 24008KT 15/00 A2978 RMK A01 T01480001  RH  037%=      5-min Rain = 0
KPD2 100644Z 23009KT 15/00 A2978 RMK A01 T01520000  RH  035%=      5-min Rain = 0
KPD2 100645Z 24007KT 16/00 A2978 RMK A01 T01550000  RH  035%=      5-min Rain = 0
KPD2 100646Z 23009KT 16/M00 A2978 RMK A01 T01551001  RH  034%=      5-min Rain = 0
KPD2 100647Z 24010KT 16/00 A2978 RMK A01 T01560001  RH  035%=      5-min Rain = 0
KPD2 100648Z 22005KT 16/00 A2978 RMK A01 T01590001  RH  034%=      5-min Rain = 0
KPD2 100649Z 22003G8KT 16/00 A2978 RMK A01 T015900-0  RH  034%=      5-min Rain = 0
KPD2 100650Z 23006KT 16/00 A2978 RMK A01 T01590000  RH  034%=      5-min Rain = 0
KPD2 100651Z 20004KT 16/00 A2978 RMK A01 T01590001  RH  034%=      5-min Rain = 0
KPD2 100652Z 20004KT 16/00 A2978 RMK A01 T01600002  RH  034%=      5-min Rain = 0
KPD2 100653Z 30000KT 16/00 A2978 RMK A01 T01620002  RH  034%=      5-min Rain = 0
KPD2 100654Z 08001KT 16/00 A2978 RMK A01 T01630002  RH  034%=      5-min Rain = 0
KPD2 100655Z 36004KT 16/00 A2977 RMK A01 T01620001  RH  034%=      5-min Rain = 0
KPD2 100656Z 26004G11KT 16/00 A2977 RMK A01 T01610002  RH  034%=      5-min Rain = 0
KPD2 100657Z 26009KT 16/00 A2977 RMK A01 T01610003  RH  034%=      5-min Rain = 0
KPD2 100658Z 22006G13KT 16/01 A2977 RMK A01 T01630005  RH  034%=      5-min Rain = 0
KPD2 100659Z 25006G11KT 16/01 A2977 RMK A01 T01640005  RH  034%=      5-min Rain = 0
KPD2 100700Z 26007G13KT 17/00 A2977 RMK A01 T01650004  RH  034%=      5-min Rain = 0
KPD2 100701Z 24008G13KT 16/00 A2977 RMK A01 T01640004  RH  034%=      5-min Rain = 0
KPD2 100702Z 22006G14KT 17/01 A2977 RMK A01 T01650006  RH  034%=      5-min Rain = 0
KPD2 100703Z 22011G17KT 17/01 A2977 RMK A01 T01650006  RH  034%=      5-min Rain = 0
KPD2 100704Z 25008G16KT 17/01 A2977 RMK A01 T01670006  RH  034%=      5-min Rain = 0
KPD2 100705Z 05002KT 17/00 A2977 RMK A01 T01670004  RH  033%=      5-min Rain = 0
KPD2 100706Z 24011G20KT 17/00 A2977 RMK A01 T01660004  RH  034%=      5-min Rain = 0
KPD2 100707Z 25012G20KT 17/01 A2976 RMK A01 T01670006  RH  034%=      5-min Rain = 0
KPD2 100708Z 26004KT 17/01 A2976 RMK A01 T01680005  RH  033%=      5-min Rain = 0
KPD2 100709Z 26006G12KT 17/01 A2976 RMK A01 T01680005  RH  033%=      5-min Rain = 0
KPD2 100710Z 23005G11KT 17/01 A2976 RMK A01 T01670005  RH  033%=      5-min Rain = 0
KPD2 100711Z 31007KT 17/01 A2976 RMK A01 T01670005  RH  033%=      5-min Rain = 0
KPD2 100712Z 26005KT 17/00 A2976 RMK A01 T01650003  RH  033%=      5-min Rain = 0
KPD2 100713Z 32006KT 16/00 A2976 RMK A01 T01610002  RH  034%=      5-min Rain = 0
KPD2 100714Z 29004KT 16/00 A2977 RMK A01 T01590002  RH  034%=      5-min Rain = 0
KPD2 100715Z 27003KT 16/00 A2976 RMK A01 T01580002  RH  034%=      5-min Rain = 0
KPD2 100716Z 33006KT 16/00 A2976 RMK A01 T01580002  RH  035%=      5-min Rain = 0
KPD2 100717Z 23004KT 16/00 A2976 RMK A01 T01550001  RH  035%=      5-min Rain = 0
KPD2 100718Z 28006KT 16/00 A2976 RMK A01 T01560002  RH  035%=      5-min Rain = 0
KPD2 100719Z 32005KT 16/00 A2976 RMK A01 T01560002  RH  035%=      5-min Rain = 0
KPD2 100720Z 32004KT 16/00 A2976 RMK A01 T01560002  RH  035%=      5-min Rain = 0
KPD2 100721Z 31003KT 15/00 A2976 RMK A01 T01540000  RH  035%=      5-min Rain = 0
KPD2 100722Z 33004KT 15/M00 A2976 RMK A01 T01511001  RH  035%=      5-min Rain = 0
KPD2 100723Z 32006KT 15/M00 A2976 RMK A01 T01471002  RH  036%=      5-min Rain = 0
KPD2 100724Z 32005KT 15/M00 A2976 RMK A01 T01451001  RH  037%=      5-min Rain = 0
KPD2 100725Z 33005KT 14/M00 A2976 RMK A01 T01441001  RH  037%=      5-min Rain = 0
KPD2 100726Z 33006KT 14/00 A2976 RMK A01 T014400-0  RH  037%=      5-min Rain = 0
KPD2 100727Z 32004KT 14/00 A2976 RMK A01 T01440000  RH  037%=      5-min Rain = 0
KPD2 100728Z 32006KT 14/00 A2976 RMK A01 T01440000  RH  037%=      5-min Rain = 0
KPD2 100729Z 31006KT 14/00 A2976 RMK A01 T01430000  RH  038%=      5-min Rain = 0
KPD2 100730Z 31006KT 14/00 A2976 RMK A01 T01440001  RH  038%=      5-min Rain = 0
KPD2 100731Z 33005KT 14/00 A2976 RMK A01 T01430001  RH  038%=      5-min Rain = 0
KPD2 100732Z 32005KT 14/00 A2976 RMK A01 T01430001  RH  038%=      5-min Rain = 0
KPD2 100733Z 32004KT 14/00 A2976 RMK A01 T01420000  RH  038%=      5-min Rain = 0
KPD2 100734Z 31006KT 14/00 A2976 RMK A01 T01420000  RH  038%=      5-min Rain = 0
KPD2 100735Z 31003KT 14/00 A2975 RMK A01 T01420000  RH  038%=      5-min Rain = 0
KPD2 100736Z 32005KT 14/00 A2976 RMK A01 T01420001  RH  038%=      5-min Rain = 0
KPD2 100737Z 34004KT 14/00 A2975 RMK A01 T01420001  RH  038%=      5-min Rain = 0
KPD2 100738Z 33006KT 14/00 A2975 RMK A01 T01420000  RH  038%=      5-min Rain = 0
KPD2 100739Z 32007KT 14/00 A2975 RMK A01 T01410000  RH  038%=      5-min Rain = 0
KPD2 100740Z 33005KT 14/00 A2975 RMK A01 T01410001  RH  038%=      5-min Rain = 0
KPD2 100741Z 35005KT 14/00 A2975 RMK A01 T01400000  RH  038%=      5-min Rain = 0
KPD2 100742Z 30005KT 14/00 A2975 RMK A01 T013800-0  RH  039%=      5-min Rain = 0
KPD2 100743Z 32004KT 14/00 A2975 RMK A01 T01390001  RH  039%=      5-min Rain = 0
KPD2 100744Z 29003KT 14/00 A2974 RMK A01 T01390001  RH  039%=      5-min Rain = 0
KPD2 100745Z 32002KT 14/00 A2974 RMK A01 T01400001  RH  039%=      5-min Rain = 0
KPD2 100746Z 01003KT 14/00 A2974 RMK A01 T01410001  RH  038%=      5-min Rain = 0
KPD2 100747Z 28002KT 14/00 A2974 RMK A01 T01410001  RH  038%=      5-min Rain = 0
KPD2 100748Z 36001KT 14/00 A2974 RMK A01 T01410001  RH  038%=      5-min Rain = 0
KPD2 100749Z 34002KT 14/00 A2974 RMK A01 T01400001  RH  038%=      5-min Rain = 0
KPD2 100750Z 00002KT 14/00 A2974 RMK A01 T01400001  RH  039%=      5-min Rain = 0
KPD2 100751Z 00003KT 14/00 A2974 RMK A01 T01390000  RH  038%=      5-min Rain = 0
KPD2 100752Z 35004KT 14/00 A2974 RMK A01 T01380000  RH  039%=      5-min Rain = 0
KPD2 100753Z 35002KT 14/00 A2974 RMK A01 T01370000  RH  039%=      5-min Rain = 0
KPD2 100754Z 32002KT 14/00 A2974 RMK A01 T01370000  RH  039%=      5-min Rain = 0
KPD2 100755Z 31002KT 14/00 A2974 RMK A01 T01370000  RH  039%=      5-min Rain = 0
KPD2 100756Z 36002KT 14/00 A2975 RMK A01 T01370000  RH  039%=      5-min Rain = 0
KPD2 100757Z 34002KT 14/00 A2975 RMK A01 T01370001  RH  039%=      5-min Rain = 0
KPD2 100758Z 09001KT 14/00 A2975 RMK A01 T01370000  RH  039%=      5-min Rain = 0
KPD2 100759Z 04003KT 14/00 A2975 RMK A01 T01370001  RH  039%=      5-min Rain = 0
KPD2 100800Z 01003KT 14/M00 A2975 RMK A01 T01351001  RH  039%=      5-min Rain = 0
KPD2 100801Z 35004KT 13/M00 A2975 RMK A01 T01341001  RH  040%=      5-min Rain = 0
KPD2 100802Z 01003KT 13/00 A2975 RMK A01 T01340000  RH  040%=      5-min Rain = 0
KPD2 100803Z 33004KT 14/00 A2975 RMK A01 T01360002  RH  040%=      5-min Rain = 0
KPD2 100804Z 33005KT 14/00 A2975 RMK A01 T01380002  RH  039%=      5-min Rain = 0
KPD2 100805Z 33006KT 14/00 A2975 RMK A01 T01380001  RH  039%=      5-min Rain = 0
KPD2 100806Z 33005KT 14/00 A2975 RMK A01 T01370000  RH  039%=      5-min Rain = 0
KPD2 100807Z 34003KT 14/00 A2975 RMK A01 T01360001  RH  039%=      5-min Rain = 0
KPD2 100808Z 03001KT 14/00 A2975 RMK A01 T01360001  RH  039%=      5-min Rain = 0
KPD2 100809Z 25002KT 14/00 A2976 RMK A01 T01360001  RH  040%=      5-min Rain = 0
KPD2 100810Z 28003KT 14/00 A2976 RMK A01 T01360001  RH  040%=      5-min Rain = 0
KPD2 100811Z 14002KT 14/00 A2976 RMK A01 T01360001  RH  040%=      5-min Rain = 0
KPD2 100812Z 28003KT 14/00 A2976 RMK A01 T01360001  RH  040%=      5-min Rain = 0
KPD2 100813Z 16002KT 14/00 A2975 RMK A01 T01380002  RH  039%=      5-min Rain = 0
KPD2 100814Z 06001KT 14/00 A2975 RMK A01 T01390003  RH  039%=      5-min Rain = 0
KPD2 100815Z 26001KT 14/00 A2975 RMK A01 T01400002  RH  039%=      5-min Rain = 0
KPD2 100816Z 29005KT 14/00 A2975 RMK A01 T01390000  RH  039%=      5-min Rain = 0
KPD2 100817Z 35005KT 13/M00 A2975 RMK A01 T01341002  RH  039%=      5-min Rain = 0
KPD2 100818Z 26005KT 13/M00 A2975 RMK A01 T01321001  RH  040%=      5-min Rain = 0
KPD2 100819Z 29002KT 13/M00 A2975 RMK A01 T01311001  RH  040%=      5-min Rain = 0
KPD2 100820Z 34002KT 13/00 A2975 RMK A01 T013000-0  RH  041%=      5-min Rain = 0
KPD2 100821Z 31006G11KT 13/00 A2975 RMK A01 T01320002  RH  041%=      5-min Rain = 0
KPD2 100822Z 17004KT 14/01 A2975 RMK A01 T01390006  RH  040%=      5-min Rain = 0
KPD2 100823Z 31004KT 14/01 A2975 RMK A01 T01430005  RH  039%=      5-min Rain = 0
KPD2 100824Z 32005KT 14/00 A2975 RMK A01 T01440004  RH  038%=      5-min Rain = 0
KPD2 100825Z 23002KT 14/00 A2975 RMK A01 T01440004  RH  038%=      5-min Rain = 0
KPD2 100826Z 19002KT 15/00 A2975 RMK A01 T01450004  RH  038%=      5-min Rain = 0
KPD2 100827Z 22002KT 15/00 A2975 RMK A01 T01450004  RH  038%=      5-min Rain = 0
KPD2 100828Z 25002G7KT 15/00 A2975 RMK A01 T01450004  RH  038%=      5-min Rain = 0
KPD2 100829Z 22007KT 15/01 A2975 RMK A01 T01460005  RH  038%=      5-min Rain = 0
KPD2 100830Z 21004KT 15/01 A2975 RMK A01 T01490006  RH  038%=      5-min Rain = 0
KPD2 100831Z 18003KT 15/01 A2975 RMK A01 T01490005  RH  037%=      5-min Rain = 0
KPD2 100832Z 34001KT 15/01 A2975 RMK A01 T01500005  RH  037%=      5-min Rain = 0
KPD2 100833Z 09001KT 15/01 A2975 RMK A01 T01500005  RH  037%=      5-min Rain = 0
KPD2 100834Z 27004KT 15/00 A2975 RMK A01 T01500003  RH  037%=      5-min Rain = 0
KPD2 100835Z 31003KT 15/M00 A2975 RMK A01 T01451001  RH  037%=      5-min Rain = 0
KPD2 100836Z 26003KT 14/M00 A2975 RMK A01 T01401002  RH  038%=      5-min Rain = 0
KPD2 100837Z 25006KT 14/M00 A2976 RMK A01 T01361002  RH  039%=      5-min Rain = 0
KPD2 100838Z 26006KT 13/M00 A2976 RMK A01 T01321002  RH  040%=      5-min Rain = 0
KPD2 100839Z 27003KT 13/M00 A2976 RMK A01 T01301001  RH  041%=      5-min Rain = 0
KPD2 100840Z 29002KT 13/00 A2976 RMK A01 T013000-0  RH  041%=      5-min Rain = 0
KPD2 100841Z 29003KT 13/M00 A2976 RMK A01 T01291001  RH  041%=      5-min Rain = 0
KPD2 100842Z 29003KT 13/M00 A2976 RMK A01 T01271001  RH  041%=      5-min Rain = 0
KPD2 100843Z 27001KT 13/M00 A2976 RMK A01 T01261001  RH  042%=      5-min Rain = 0
KPD2 100844Z 05002KT 13/M00 A2976 RMK A01 T01251001  RH  042%=      5-min Rain = 0
KPD2 100845Z 06001KT 12/M00 A2976 RMK A01 T01241001  RH  042%=      5-min Rain = 0
KPD2 100846Z 00000KT 12/M00 A2976 RMK A01 T01231001  RH  042%=      5-min Rain = 0
KPD2 100847Z 06000KT 12/00 A2975 RMK A01 T01230000  RH  043%=      5-min Rain = 0
KPD2 100848Z 32002KT 12/00 A2975 RMK A01 T01240000  RH  043%=      5-min Rain = 0
KPD2 100849Z 35003KT 12/00 A2975 RMK A01 T012400-0  RH  042%=      5-min Rain = 0
KPD2 100850Z 03001KT 12/M00 A2975 RMK A01 T01231001  RH  043%=      5-min Rain = 0
KPD2 100851Z 28002KT 12/M00 A2975 RMK A01 T01221001  RH  043%=      5-min Rain = 0
KPD2 100852Z 27001KT 12/M00 A2975 RMK A01 T01221001  RH  043%=      5-min Rain = 0
KPD2 100853Z 34001KT 12/M00 A2975 RMK A01 T01211001  RH  043%=      5-min Rain = 0
KPD2 100854Z 34001KT 12/00 A2975 RMK A01 T012100-0  RH  043%=      5-min Rain = 0
KPD2 100855Z 35002KT 12/00 A2975 RMK A01 T01210000  RH  043%=      5-min Rain = 0
KPD2 100856Z 33003KT 12/00 A2975 RMK A01 T012100-0  RH  043%=      5-min Rain = 0
KPD2 100857Z 31002KT 12/M00 A2975 RMK A01 T01211001  RH  043%=      5-min Rain = 0
KPD2 100858Z 29004KT 12/00 A2975 RMK A01 T012200-0  RH  043%=      5-min Rain = 0
KPD2 100859Z 32003KT 12/00 A2975 RMK A01 T01210000  RH  043%=      5-min Rain = 0
KPD2 100900Z 30003KT 12/00 A2975 RMK A01 T01220001  RH  043%=      5-min Rain = 0
KPD2 100901Z 30002KT 12/00 A2975 RMK A01 T01220001  RH  043%=      5-min Rain = 0
KPD2 100902Z 34001KT 12/00 A2974 RMK A01 T01220001  RH  043%=      5-min Rain = 0
KPD2 100903Z 30002KT 12/00 A2975 RMK A01 T01230001  RH  043%=      5-min Rain = 0
KPD2 100904Z 31003KT 12/00 A2974 RMK A01 T01230001  RH  043%=      5-min Rain = 0
KPD2 100905Z 34003KT 12/00 A2974 RMK A01 T01230001  RH  043%=      5-min Rain = 0
KPD2 100906Z 36004KT 12/00 A2974 RMK A01 T012100-0  RH  043%=      5-min Rain = 0
KPD2 100907Z 32004KT 12/00 A2974 RMK A01 T01210001  RH  044%=      5-min Rain = 0
KPD2 100908Z 01002KT 12/00 A2974 RMK A01 T01240004  RH  044%=      5-min Rain = 0
KPD2 100909Z 32002KT 13/00 A2974 RMK A01 T01260003  RH  043%=      5-min Rain = 0
KPD2 100910Z 33003KT 13/00 A2974 RMK A01 T01260002  RH  043%=      5-min Rain = 0
KPD2 100911Z 00006KT 13/00 A2974 RMK A01 T01260002  RH  042%=      5-min Rain = 0
KPD2 100912Z 35004KT 13/00 A2974 RMK A01 T01270003  RH  043%=      5-min Rain = 0
KPD2 100913Z 00004KT 13/00 A2974 RMK A01 T01290004  RH  042%=      5-min Rain = 0
KPD2 100914Z 35004KT 13/00 A2974 RMK A01 T01310004  RH  042%=      5-min Rain = 0
KPD2 100915Z 36003KT 13/00 A2974 RMK A01 T01320004  RH  042%=      5-min Rain = 0
KPD2 100916Z 35003KT 13/00 A2974 RMK A01 T01330004  RH  041%=      5-min Rain = 0
KPD2 100917Z 00004KT 13/00 A2974 RMK A01 T01330004  RH  041%=      5-min Rain = 0
KPD2 100918Z 35005KT 13/00 A2974 RMK A01 T01330004  RH  041%=      5-min Rain = 0
KPD2 100919Z 35004KT 13/00 A2974 RMK A01 T01330004  RH  041%=      5-min Rain = 0
KPD2 100920Z 34004KT 13/00 A2974 RMK A01 T01340004  RH  041%=      5-min Rain = 0
KPD2 100921Z 34003KT 13/00 A2974 RMK A01 T01340003  RH  041%=      5-min Rain = 0
KPD2 100922Z 35003KT 13/00 A2974 RMK A01 T01340004  RH  041%=      5-min Rain = 0
KPD2 100923Z 32003KT 13/00 A2974 RMK A01 T01340004  RH  041%=      5-min Rain = 0
KPD2 100924Z 34003KT 13/00 A2975 RMK A01 T01340003  RH  041%=      5-min Rain = 0
KPD2 100925Z 34003KT 13/00 A2975 RMK A01 T01340003  RH  041%=      5-min Rain = 0
KPD2 100926Z 32002KT 13/00 A2975 RMK A01 T01340003  RH  041%=      5-min Rain = 0
KPD2 100927Z 30001KT 13/00 A2975 RMK A01 T01330003  RH  041%=      5-min Rain = 0
KPD2 100928Z 21001KT 13/00 A2975 RMK A01 T01330002  RH  041%=      5-min Rain = 0
KPD2 100929Z 22000KT 13/00 A2975 RMK A01 T01320003  RH  041%=      5-min Rain = 0
KPD2 100930Z 06001KT 13/00 A2975 RMK A01 T01310002  RH  041%=      5-min Rain = 0
KPD2 100931Z 05001KT 13/00 A2975 RMK A01 T01300003  RH  042%=      5-min Rain = 0
KPD2 100932Z 07001KT 13/00 A2975 RMK A01 T01300003  RH  042%=      5-min Rain = 0
KPD2 100933Z 04000KT 13/00 A2975 RMK A01 T01300002  RH  042%=      5-min Rain = 0
KPD2 100934Z 08000KT 13/00 A2975 RMK A01 T01300002  RH  042%=      5-min Rain = 0
KPD2 100935Z 01002KT 13/00 A2975 RMK A01 T01310002  RH  041%=      5-min Rain = 0
KPD2 100936Z 02006KT 13/00 A2974 RMK A01 T01320003  RH  041%=      5-min Rain = 0
KPD2 100937Z 03006KT 13/00 A2974 RMK A01 T01320002  RH  041%=      5-min Rain = 0
KPD2 100938Z 03005KT 13/00 A2974 RMK A01 T01320003  RH  041%=      5-min Rain = 0
KPD2 100939Z 00005KT 13/00 A2974 RMK A01 T01320003  RH  041%=      5-min Rain = 0
KPD2 100940Z 01004KT 13/00 A2974 RMK A01 T01320002  RH  041%=      5-min Rain = 0
KPD2 100941Z 01003KT 13/00 A2974 RMK A01 T01320003  RH  041%=      5-min Rain = 0
KPD2 100942Z 34004KT 13/00 A2974 RMK A01 T01310002  RH  041%=      5-min Rain = 0
KPD2 100943Z 35004KT 13/00 A2974 RMK A01 T01310002  RH  041%=      5-min Rain = 0
KPD2 100944Z 01005KT 13/00 A2974 RMK A01 T01310002  RH  041%=      5-min Rain = 0
KPD2 100945Z 00005KT 13/00 A2974 RMK A01 T01300002  RH  041%=      5-min Rain = 0
KPD2 100946Z 36003KT 13/00 A2974 RMK A01 T01300002  RH  042%=      5-min Rain = 0
KPD2 100947Z 34002KT 13/00 A2974 RMK A01 T01300002  RH  041%=      5-min Rain = 0
KPD2 100948Z 34004KT 13/00 A2974 RMK A01 T01300002  RH  041%=      5-min Rain = 0
KPD2 100949Z 34004KT 13/00 A2974 RMK A01 T01300002  RH  041%=      5-min Rain = 0
KPD2 100950Z 02002KT 13/00 A2974 RMK A01 T01300002  RH  041%=      5-min Rain = 0
KPD2 100951Z 02003KT 13/00 A2974 RMK A01 T01310002  RH  041%=      5-min Rain = 0
KPD2 100952Z 02003KT 13/00 A2974 RMK A01 T01320002  RH  041%=      5-min Rain = 0
KPD2 100953Z 03003KT 13/00 A2973 RMK A01 T01330002  RH  041%=      5-min Rain = 0
KPD2 100954Z 02003KT 13/00 A2974 RMK A01 T01320002  RH  041%=      5-min Rain = 0
KPD2 100955Z 36004KT 13/00 A2973 RMK A01 T01320002  RH  041%=      5-min Rain = 0
KPD2 100956Z 36004KT 13/00 A2973 RMK A01 T01300001  RH  041%=      5-min Rain = 0
KPD2 100957Z 35004KT 13/00 A2974 RMK A01 T01290001  RH  041%=      5-min Rain = 0
KPD2 100958Z 33005KT 13/00 A2974 RMK A01 T01290001  RH  041%=      5-min Rain = 0
KPD2 100959Z 33005KT 13/00 A2974 RMK A01 T01290001  RH  042%=      5-min Rain = 0
KPD2 101000Z 32006KT 13/00 A2974 RMK A01 T01280001  RH  042%=      5-min Rain = 0
KPD2 101001Z 34006KT 13/00 A2974 RMK A01 T01280001  RH  042%=      5-min Rain = 0
KPD2 101002Z 34006KT 13/00 A2974 RMK A01 T01280001  RH  042%=      5-min Rain = 0
KPD2 101003Z 34007KT 13/00 A2973 RMK A01 T01270001  RH  042%=      5-min Rain = 0
KPD2 101004Z 35008KT 13/00 A2973 RMK A01 T01270001  RH  042%=      5-min Rain = 0
KPD2 101005Z 35008KT 13/00 A2973 RMK A01 T01270001  RH  042%=      5-min Rain = 0
KPD2 101006Z 35007KT 13/00 A2973 RMK A01 T01270001  RH  042%=      5-min Rain = 0
KPD2 101007Z 35004KT 13/00 A2973 RMK A01 T01270001  RH  042%=      5-min Rain = 0
KPD2 101008Z 33003KT 13/00 A2973 RMK A01 T01280001  RH  042%=      5-min Rain = 0
KPD2 101009Z 33004KT 13/00 A2973 RMK A01 T01290001  RH  042%=      5-min Rain = 0
KPD2 101010Z 32004KT 13/00 A2973 RMK A01 T01290001  RH  041%=      5-min Rain = 0
KPD2 101011Z 28002KT 13/00 A2973 RMK A01 T01290001  RH  041%=      5-min Rain = 0
KPD2 101012Z 31003KT 13/M00 A2974 RMK A01 T01271001  RH  042%=      5-min Rain = 0
KPD2 101013Z 32003KT 12/M00 A2974 RMK A01 T01241001  RH  042%=      5-min Rain = 0
KPD2 101014Z 33003KT 12/M00 A2974 RMK A01 T01231001  RH  043%=      5-min Rain = 0
KPD2 101015Z 33003KT 12/M00 A2973 RMK A01 T01221001  RH  043%=      5-min Rain = 0
KPD2 101016Z 33004KT 12/00 A2973 RMK A01 T01230000  RH  043%=      5-min Rain = 0
KPD2 101017Z 34003KT 12/00 A2973 RMK A01 T012200-0  RH  043%=      5-min Rain = 0
KPD2 101018Z 33003KT 12/M00 A2973 RMK A01 T01221001  RH  043%=      5-min Rain = 0
KPD2 101019Z 35004KT 12/M00 A2973 RMK A01 T01211001  RH  043%=      5-min Rain = 0
KPD2 101020Z 32003KT 12/M00 A2973 RMK A01 T01201001  RH  043%=      5-min Rain = 0
KPD2 101021Z 34004KT 12/M00 A2973 RMK A01 T01191002  RH  043%=      5-min Rain = 0
KPD2 101022Z 33003KT 12/M00 A2973 RMK A01 T01181001  RH  044%=      5-min Rain = 0
KPD2 101023Z 32002KT 12/M00 A2973 RMK A01 T01181001  RH  044%=      5-min Rain = 0
KPD2 101024Z 30002KT 12/M00 A2972 RMK A01 T01181001  RH  044%=      5-min Rain = 0
KPD2 101025Z 32003KT 12/M00 A2972 RMK A01 T01181001  RH  044%=      5-min Rain = 0
KPD2 101026Z 30003KT 12/M00 A2972 RMK A01 T01171001  RH  044%=      5-min Rain = 0
KPD2 101027Z 27004KT 12/00 A2972 RMK A01 T011800-0  RH  044%=      5-min Rain = 0
KPD2 101028Z 26004KT 12/M00 A2972 RMK A01 T01181001  RH  044%=      5-min Rain = 0
KPD2 101029Z 26004KT 12/M00 A2972 RMK A01 T01181001  RH  044%=      5-min Rain = 0
KPD2 101030Z 30003KT 12/M00 A2972 RMK A01 T01171001  RH  044%=      5-min Rain = 0
KPD2 101031Z 29003KT 12/M00 A2972 RMK A01 T01161002  RH  044%=      5-min Rain = 0
KPD2 101032Z 29003KT 12/M00 A2973 RMK A01 T01151002  RH  045%=      5-min Rain = 0
KPD2 101033Z 31003KT 11/M00 A2973 RMK A01 T01141001  RH  045%=      5-min Rain = 0
KPD2 101034Z 30003KT 11/M00 A2973 RMK A01 T01121003  RH  045%=      5-min Rain = 0
KPD2 101035Z 30004KT 11/M00 A2973 RMK A01 T01111002  RH  046%=      5-min Rain = 0
KPD2 101036Z 31004KT 11/M00 A2972 RMK A01 T01091003  RH  046%=      5-min Rain = 0
KPD2 101037Z 33003KT 11/M00 A2972 RMK A01 T01081003  RH  046%=      5-min Rain = 0
KPD2 101038Z 34003KT 11/M00 A2972 RMK A01 T01071002  RH  047%=      5-min Rain = 0
KPD2 101039Z 32003KT 11/M00 A2973 RMK A01 T01071002  RH  047%=      5-min Rain = 0
KPD2 101040Z 30003KT 11/M00 A2973 RMK A01 T01071002  RH  047%=      5-min Rain = 0
KPD2 101041Z 28004KT 11/M00 A2973 RMK A01 T01071002  RH  047%=      5-min Rain = 0
KPD2 101042Z 29003KT 11/M00 A2973 RMK A01 T01071002  RH  047%=      5-min Rain = 0
KPD2 101043Z 32002KT 11/M00 A2972 RMK A01 T01071002  RH  047%=      5-min Rain = 0
KPD2 101044Z 32002KT 11/M00 A2972 RMK A01 T01061002  RH  047%=      5-min Rain = 0
KPD2 101045Z 33002KT 11/M00 A2972 RMK A01 T01061002  RH  047%=      5-min Rain = 0
KPD2 101046Z 02002KT 11/M00 A2972 RMK A01 T01061002  RH  047%=      5-min Rain = 0
KPD2 101047Z 34002KT 11/M00 A2972 RMK A01 T01061002  RH  047%=      5-min Rain = 0
KPD2 101048Z 30003KT 11/00 A2973 RMK A01 T010700-0  RH  047%=      5-min Rain = 0
KPD2 101049Z 31003KT 11/00 A2972 RMK A01 T010900-0  RH  047%=      5-min Rain = 0
KPD2 101050Z 35003KT 11/M00 A2972 RMK A01 T01091002  RH  046%=      5-min Rain = 0
KPD2 101051Z 33002KT 11/M00 A2972 RMK A01 T01091001  RH  046%=      5-min Rain = 0
KPD2 101052Z 28002KT 11/M00 A2972 RMK A01 T01091001  RH  047%=      5-min Rain = 0
KPD2 101053Z 29003KT 11/M00 A2972 RMK A01 T01091002  RH  046%=      5-min Rain = 0
KPD2 101054Z 30002KT 11/M00 A2972 RMK A01 T01091001  RH  046%=      5-min Rain = 0
KPD2 101055Z 31003KT 11/M00 A2972 RMK A01 T01091002  RH  046%=      5-min Rain = 0
KPD2 101056Z 32002KT 11/M00 A2972 RMK A01 T01091002  RH  046%=      5-min Rain = 0
KPD2 101057Z 31002KT 11/M00 A2972 RMK A01 T01081002  RH  047%=      5-min Rain = 0
KPD2 101058Z 31002KT 11/M00 A2972 RMK A01 T01081002  RH  047%=      5-min Rain = 0
KPD2 101059Z 30002KT 11/M00 A2972 RMK A01 T01081002  RH  047%=      5-min Rain = 0
KPD2 101100Z 29002KT 11/M00 A2972 RMK A01 T01081001  RH  047%=      5-min Rain = 0
KPD2 101101Z 28002KT 11/M00 A2972 RMK A01 T01081002  RH  047%=      5-min Rain = 0
KPD2 101102Z 30002KT 11/M00 A2972 RMK A01 T01081001  RH  047%=      5-min Rain = 0
KPD2 101103Z 31002KT 11/M00 A2972 RMK A01 T01081001  RH  047%=      5-min Rain = 0
KPD2 101104Z 34002KT 11/M00 A2972 RMK A01 T01091001  RH  047%=      5-min Rain = 0
KPD2 101105Z 32002KT 11/M00 A2972 RMK A01 T01091001  RH  047%=      5-min Rain = 0
KPD2 101106Z 32002KT 11/M00 A2972 RMK A01 T01091002  RH  046%=      5-min Rain = 0
KPD2 101107Z 33003KT 11/M00 A2972 RMK A01 T01081003  RH  046%=      5-min Rain = 0
KPD2 101108Z 36002KT 11/M00 A2972 RMK A01 T01061003  RH  047%=      5-min Rain = 0
KPD2 101109Z 32001KT 11/M00 A2972 RMK A01 T01061002  RH  047%=      5-min Rain = 0
KPD2 101110Z 30001KT 11/M00 A2972 RMK A01 T01061002  RH  047%=      5-min Rain = 0
KPD2 101111Z 26001KT 11/M00 A2972 RMK A01 T01061002  RH  047%=      5-min Rain = 0
KPD2 101112Z 25001KT 11/M00 A2972 RMK A01 T01061002  RH  047%=      5-min Rain = 0
KPD2 101113Z 23001KT 11/M00 A2972 RMK A01 T01061001  RH  047%=      5-min Rain = 0
KPD2 101114Z 23001KT 11/M00 A2972 RMK A01 T01061002  RH  047%=      5-min Rain = 0
KPD2 101115Z 25001KT 11/M00 A2972 RMK A01 T01061002  RH  047%=      5-min Rain = 0
KPD2 101116Z 03000KT 11/M00 A2972 RMK A01 T01071001  RH  047%=      5-min Rain = 0
KPD2 101117Z 02002KT 11/M00 A2972 RMK A01 T01081001  RH  047%=      5-min Rain = 0
KPD2 101118Z 36002KT 11/M00 A2972 RMK A01 T01091001  RH  047%=      5-min Rain = 0
KPD2 101119Z 01003KT 11/M00 A2972 RMK A01 T01091001  RH  047%=      5-min Rain = 0
KPD2 101120Z 01002KT 11/M00 A2972 RMK A01 T01091001  RH  046%=      5-min Rain = 0
KPD2 101121Z 01003KT 11/M00 A2972 RMK A01 T01081002  RH  047%=      5-min Rain = 0
KPD2 101122Z 01003KT 11/M00 A2972 RMK A01 T01081002  RH  047%=      5-min Rain = 0
KPD2 101123Z 02002KT 11/M00 A2972 RMK A01 T01081002  RH  047%=      5-min Rain = 0
KPD2 101124Z 03001KT 11/M00 A2972 RMK A01 T01081002  RH  047%=      5-min Rain = 0
KPD2 101125Z 03003KT 11/M00 A2972 RMK A01 T01071004  RH  046%=      5-min Rain = 0
KPD2 101126Z 03003KT 10/M01 A2972 RMK A01 T01041005  RH  047%=      5-min Rain = 0
KPD2 101127Z 00001KT 10/M00 A2972 RMK A01 T01031004  RH  048%=      5-min Rain = 0
KPD2 101128Z 17002KT 10/M00 A2972 RMK A01 T01021004  RH  048%=      5-min Rain = 0
KPD2 101129Z 16003KT 10/M00 A2972 RMK A01 T01011004  RH  048%=      5-min Rain = 0
KPD2 101130Z 14003KT 10/M00 A2972 RMK A01 T01011004  RH  048%=      5-min Rain = 0
KPD2 101131Z 09002KT 10/M00 A2972 RMK A01 T01021001  RH  049%=      5-min Rain = 0
KPD2 101132Z 08003KT 11/M00 A2972 RMK A01 T01061001  RH  047%=      5-min Rain = 0
KPD2 101133Z 09001KT 11/M00 A2972 RMK A01 T01071002  RH  047%=      5-min Rain = 0
KPD2 101134Z 06003KT 11/M00 A2972 RMK A01 T01071002  RH  047%=      5-min Rain = 0
KPD2 101135Z 05002KT 11/M00 A2972 RMK A01 T01091001  RH  046%=      5-min Rain = 0
KPD2 101136Z 06000KT 11/M00 A2972 RMK A01 T01101002  RH  046%=      5-min Rain = 0
KPD2 101137Z 00000KT 11/M00 A2972 RMK A01 T01111002  RH  046%=      5-min Rain = 0
KPD2 101138Z 00000KT 11/M00 A2972 RMK A01 T01111002  RH  046%=      5-min Rain = 0
KPD2 101139Z 06000KT 11/M00 A2972 RMK A01 T01101002  RH  046%=      5-min Rain = 0
KPD2 101140Z 08001KT 11/M00 A2972 RMK A01 T01101002  RH  046%=      5-min Rain = 0
KPD2 101141Z 08000KT 11/M00 A2972 RMK A01 T01101002  RH  046%=      5-min Rain = 0
KPD2 101142Z 17001KT 11/M00 A2972 RMK A01 T01101003  RH  046%=      5-min Rain = 0
KPD2 101143Z 16002KT 11/M00 A2972 RMK A01 T01081003  RH  046%=      5-min Rain = 0
KPD2 101144Z 17001KT 11/M00 A2972 RMK A01 T01071004  RH  046%=      5-min Rain = 0
KPD2 101145Z 17002KT 11/M01 A2972 RMK A01 T01051005  RH  046%=      5-min Rain = 0
KPD2 101146Z 19001KT 10/M01 A2972 RMK A01 T01041005  RH  047%=      5-min Rain = 0
KPD2 101147Z 21001KT 10/M00 A2972 RMK A01 T01031004  RH  047%=      5-min Rain = 0
KPD2 101148Z 21000KT 10/M00 A2972 RMK A01 T01021004  RH  048%=      5-min Rain = 0
KPD2 101149Z 00000KT 10/M00 A2972 RMK A01 T01021004  RH  048%=      5-min Rain = 0
KPD2 101150Z 07001KT 10/M00 A2972 RMK A01 T01011004  RH  048%=      5-min Rain = 0
KPD2 101151Z 06002KT 10/M00 A2972 RMK A01 T01011003  RH  048%=      5-min Rain = 0
KPD2 101152Z 04000KT 10/M00 A2972 RMK A01 T01011004  RH  048%=      5-min Rain = 0
KPD2 101153Z 28001KT 10/M01 A2972 RMK A01 T00981007  RH  048%=      5-min Rain = 0
KPD2 101154Z 33001KT 10/M01 A2971 RMK A01 T00961006  RH  049%=      5-min Rain = 0
KPD2 101155Z 32001KT 10/M00 A2971 RMK A01 T00961004  RH  049%=      5-min Rain = 0
KPD2 101156Z 27001KT 10/M00 A2971 RMK A01 T00971004  RH  049%=      5-min Rain = 0
KPD2 101157Z 26001KT 10/M01 A2972 RMK A01 T00971005  RH  049%=      5-min Rain = 0
KPD2 101158Z 29001KT 10/M01 A2972 RMK A01 T00961005  RH  049%=      5-min Rain = 0
KPD2 101159Z 34001KT 10/M01 A2972 RMK A01 T00951005  RH  049%=      5-min Rain = 0
KPD2 101200Z 31002KT 10/M00 A2972 RMK A01 T00951004  RH  050%=      5-min Rain = 0
KPD2 101201Z 30002KT 10/M00 A2972 RMK A01 T00951004  RH  050%=      5-min Rain = 0
KPD2 101202Z 31002KT 10/M00 A2972 RMK A01 T00951003  RH  050%=      5-min Rain = 0
KPD2 101203Z 00002KT 10/M00 A2972 RMK A01 T00961003  RH  050%=      5-min Rain = 0
KPD2 101204Z 03003KT 10/M00 A2972 RMK A01 T00961003  RH  050%=      5-min Rain = 0
KPD2 101205Z 03003KT 10/M00 A2972 RMK A01 T00971003  RH  050%=      5-min Rain = 0
KPD2 101206Z 01002KT 10/M00 A2972 RMK A01 T00991002  RH  049%=      5-min Rain = 0
KPD2 101207Z 03003KT 10/M00 A2972 RMK A01 T01011002  RH  049%=      5-min Rain = 0
KPD2 101208Z 04003KT 10/M00 A2972 RMK A01 T01021002  RH  049%=      5-min Rain = 0
KPD2 101209Z 03003KT 10/M00 A2972 RMK A01 T01021002  RH  048%=      5-min Rain = 0
KPD2 101210Z 36004KT 10/M00 A2972 RMK A01 T01031002  RH  048%=      5-min Rain = 0
KPD2 101211Z 33004KT 10/M00 A2972 RMK A01 T01041002  RH  048%=      5-min Rain = 0
KPD2 101212Z 34004KT 10/M00 A2972 RMK A01 T01041003  RH  047%=      5-min Rain = 0
KPD2 101213Z 32003KT 10/M00 A2972 RMK A01 T01031004  RH  048%=      5-min Rain = 0
KPD2 101214Z 32002KT 10/M00 A2972 RMK A01 T01031003  RH  048%=      5-min Rain = 0
KPD2 101215Z 35001KT 10/M00 A2972 RMK A01 T01041003  RH  048%=      5-min Rain = 0
KPD2 101216Z 01001KT 11/M00 A2972 RMK A01 T01051003  RH  047%=      5-min Rain = 0
KPD2 101217Z 01002KT 10/M00 A2971 RMK A01 T01041004  RH  047%=      5-min Rain = 0
KPD2 101218Z 31003KT 11/M00 A2971 RMK A01 T01051003  RH  047%=      5-min Rain = 0
KPD2 101219Z 29002KT 11/M00 A2971 RMK A01 T01061003  RH  047%=      5-min Rain = 0
KPD2 101220Z 34002KT 11/M00 A2971 RMK A01 T01061003  RH  047%=      5-min Rain = 0
KPD2 101221Z 01002KT 11/M00 A2971 RMK A01 T01071002  RH  047%=      5-min Rain = 0
KPD2 101222Z 35003KT 11/M00 A297 RMK A01 T01071003  RH  047%=      5-min Rain = 0
KPD2 101223Z 35004KT 11/M00 A297 RMK A01 T01071003  RH  047%=      5-min Rain = 0
KPD2 101224Z 35004KT 11/M00 A297 RMK A01 T01071003  RH  046%=      5-min Rain = 0
KPD2 101225Z 34004KT 11/M00 A297 RMK A01 T01061004  RH  046%=      5-min Rain = 0
KPD2 101226Z 35004KT 11/M01 A297 RMK A01 T01051005  RH  046%=      5-min Rain = 0
KPD2 101227Z 33004KT 10/M01 A297 RMK A01 T01031006  RH  047%=      5-min Rain = 0
KPD2 101228Z 33005KT 10/M01 A297 RMK A01 T01021006  RH  047%=      5-min Rain = 0
KPD2 101229Z 34005KT 10/M01 A297 RMK A01 T01021006  RH  047%=      5-min Rain = 0
KPD2 101230Z 33004KT 10/M01 A297 RMK A01 T01021005  RH  047%=      5-min Rain = 0
KPD2 101231Z 32004KT 10/M01 A297 RMK A01 T01021006  RH  047%=      5-min Rain = 0
KPD2 101232Z 30004KT 10/M01 A2971 RMK A01 T01021005  RH  047%=      5-min Rain = 0
KPD2 101233Z 28003KT 10/M01 A2971 RMK A01 T01011006  RH  047%=      5-min Rain = 0
KPD2 101234Z 28004KT 10/M01 A2971 RMK A01 T00991007  RH  048%=      5-min Rain = 0
KPD2 101235Z 27004KT 10/M01 A2971 RMK A01 T00971007  RH  048%=      5-min Rain = 0
KPD2 101236Z 28003KT 10/M01 A2971 RMK A01 T00951007  RH  049%=      5-min Rain = 0
KPD2 101237Z 29002KT 09/M01 A2971 RMK A01 T00941007  RH  049%=      5-min Rain = 0
KPD2 101238Z 30002KT 09/M01 A2971 RMK A01 T00931006  RH  050%=      5-min Rain = 0
KPD2 101239Z 30002KT 09/M01 A2971 RMK A01 T00931005  RH  050%=      5-min Rain = 0
KPD2 101240Z 30002KT 09/M01 A2971 RMK A01 T00931005  RH  050%=      5-min Rain = 0
KPD2 101241Z 30002KT 10/M00 A297 RMK A01 T00951004  RH  050%=      5-min Rain = 0
KPD2 101242Z 29002KT 10/M00 A297 RMK A01 T00961003  RH  050%=      5-min Rain = 0
KPD2 101243Z 29002KT 10/M00 A297 RMK A01 T00971003  RH  049%=      5-min Rain = 0
KPD2 101244Z 32002KT 10/M00 A297 RMK A01 T00991003  RH  049%=      5-min Rain = 0
KPD2 101245Z 32001KT 10/M00 A297 RMK A01 T00991003  RH  049%=      5-min Rain = 0
KPD2 101246Z 29000KT 10/M00 A297 RMK A01 T01001004  RH  048%=      5-min Rain = 0
KPD2 101247Z 33000KT 10/M00 A297 RMK A01 T01001004  RH  048%=      5-min Rain = 0
KPD2 101248Z 01000KT 10/M00 A297 RMK A01 T01011004  RH  048%=      5-min Rain = 0
KPD2 101249Z 05001KT 10/M00 A297 RMK A01 T01031003  RH  048%=      5-min Rain = 0
KPD2 101250Z 10001KT 10/M00 A297 RMK A01 T01031004  RH  047%=      5-min Rain = 0
KPD2 101251Z 11002KT 10/M01 A297 RMK A01 T01031005  RH  047%=      5-min Rain = 0
KPD2 101252Z 11001KT 10/M01 A297 RMK A01 T01021005  RH  047%=      5-min Rain = 0
KPD2 101253Z 12000KT 10/M01 A297 RMK A01 T01011005  RH  048%=      5-min Rain = 0
KPD2 101254Z 00000KT 10/M01 A297 RMK A01 T01001006  RH  048%=      5-min Rain = 0
KPD2 101255Z 00000KT 10/M01 A297 RMK A01 T01001005  RH  048%=      5-min Rain = 0
KPD2 101256Z 00001KT 10/M01 A297 RMK A01 T01001005  RH  048%=      5-min Rain = 0
KPD2 101257Z 01002KT 10/M01 A297 RMK A01 T01001005  RH  048%=      5-min Rain = 0
KPD2 101258Z 02002KT 10/M01 A297 RMK A01 T01001005  RH  048%=      5-min Rain = 0
KPD2 101259Z 33002KT 10/M01 A297 RMK A01 T01001005  RH  048%=      5-min Rain = 0
KPD2 101300Z 33001KT 10/M01 A297 RMK A01 T00991006  RH  048%=      5-min Rain = 0
KPD2 101301Z 32002KT 10/M01 A297 RMK A01 T00981006  RH  048%=      5-min Rain = 0
KPD2 101302Z 32002KT 10/M01 A297 RMK A01 T00961007  RH  049%=      5-min Rain = 0
KPD2 101303Z 27002KT 10/M01 A297 RMK A01 T00951007  RH  049%=      5-min Rain = 0
KPD2 101304Z 28002KT 10/M01 A2969 RMK A01 T00951006  RH  049%=      5-min Rain = 0
KPD2 101305Z 29003KT 10/M01 A2969 RMK A01 T00951006  RH  049%=      5-min Rain = 0
KPD2 101306Z 31002KT 10/M01 A2969 RMK A01 T00961005  RH  049%=      5-min Rain = 0
KPD2 101307Z 31003KT 10/M01 A2969 RMK A01 T00961005  RH  049%=      5-min Rain = 0
KPD2 101308Z 31001KT 10/M01 A2969 RMK A01 T00951006  RH  049%=      5-min Rain = 0
KPD2 101309Z 30001KT 10/M01 A2969 RMK A01 T00951006  RH  049%=      5-min Rain = 0
KPD2 101310Z 30002KT 10/M01 A2969 RMK A01 T00951006  RH  049%=      5-min Rain = 0
KPD2 101311Z 33002KT 09/M01 A2969 RMK A01 T00941006  RH  049%=      5-min Rain = 0
KPD2 101312Z 33003KT 10/M01 A2969 RMK A01 T00951005  RH  050%=      5-min Rain = 0
KPD2 101313Z 33003KT 10/M01 A2969 RMK A01 T00951005  RH  050%=      5-min Rain = 0
KPD2 101314Z 33002KT 10/M01 A2969 RMK A01 T00951006  RH  049%=      5-min Rain = 0
KPD2 101315Z 33002KT 10/M01 A2969 RMK A01 T00951006  RH  049%=      5-min Rain = 0
KPD2 101316Z 32003KT 10/M01 A2969 RMK A01 T00951005  RH  050%=      5-min Rain = 0
KPD2 101317Z 31002KT 10/M01 A2969 RMK A01 T00961005  RH  049%=      5-min Rain = 0
KPD2 101318Z 29002KT 10/M01 A2969 RMK A01 T00971005  RH  049%=      5-min Rain = 0
KPD2 101319Z 30001KT 10/M01 A2969 RMK A01 T00971005  RH  049%=      5-min Rain = 0
KPD2 101320Z 29001KT 10/M01 A2968 RMK A01 T00971005  RH  049%=      5-min Rain = 0
KPD2 101321Z 25000KT 10/M01 A2969 RMK A01 T00971005  RH  049%=      5-min Rain = 0
KPD2 101322Z 27001KT 10/M01 A2969 RMK A01 T00971005  RH  049%=      5-min Rain = 0
KPD2 101323Z 03000KT 10/M01 A2969 RMK A01 T00971005  RH  049%=      5-min Rain = 0
KPD2 101324Z 03000KT 10/M01 A2969 RMK A01 T00971005  RH  049%=      5-min Rain = 0
KPD2 101325Z 36002KT 10/M01 A2969 RMK A01 T00981005  RH  049%=      5-min Rain = 0
KPD2 101326Z 35002KT 10/M01 A2969 RMK A01 T00981005  RH  049%=      5-min Rain = 0
KPD2 101327Z 35002KT 10/M01 A297 RMK A01 T00971005  RH  049%=      5-min Rain = 0
KPD2 101328Z 00002KT 10/M01 A297 RMK A01 T00971006  RH  049%=      5-min Rain = 0
KPD2 101329Z 34002KT 10/M01 A297 RMK A01 T00961006  RH  049%=      5-min Rain = 0
KPD2 101330Z 33001KT 10/M01 A297 RMK A01 T00961006  RH  049%=      5-min Rain = 0
KPD2 101331Z 00000KT 10/M01 A297 RMK A01 T00961006  RH  049%=      5-min Rain = 0
KPD2 101332Z 10000KT 10/M01 A297 RMK A01 T00971005  RH  049%=      5-min Rain = 0
KPD2 101333Z 13000KT 10/M01 A297 RMK A01 T00981005  RH  048%=      5-min Rain = 0
KPD2 101334Z 08001KT 10/M01 A297 RMK A01 T00991006  RH  048%=      5-min Rain = 0
KPD2 101335Z 08001KT 10/M01 A297 RMK A01 T01001006  RH  048%=      5-min Rain = 0
KPD2 101336Z 00000KT 10/M01 A297 RMK A01 T01001005  RH  048%=      5-min Rain = 0
KPD2 101337Z 05000KT 10/M01 A297 RMK A01 T01001006  RH  048%=      5-min Rain = 0
KPD2 101338Z 30001KT 10/M01 A297 RMK A01 T01001006  RH  048%=      5-min Rain = 0
KPD2 101339Z 31002KT 10/M01 A297 RMK A01 T01001005  RH  048%=      5-min Rain = 0
KPD2 101340Z 32002KT 10/M01 A297 RMK A01 T01001006  RH  048%=      5-min Rain = 0
KPD2 101341Z 31001KT 10/M01 A297 RMK A01 T01001006  RH  048%=      5-min Rain = 0
KPD2 101342Z 29002KT 10/M01 A297 RMK A01 T00991006  RH  048%=      5-min Rain = 0
KPD2 101343Z 29002KT 10/M01 A297 RMK A01 T00991006  RH  048%=      5-min Rain = 0
KPD2 101344Z 30001KT 10/M01 A297 RMK A01 T00981006  RH  048%=      5-min Rain = 0
KPD2 101345Z 32002KT 10/M01 A297 RMK A01 T00971006  RH  049%=      5-min Rain = 0
KPD2 101346Z 35002KT 10/M01 A297 RMK A01 T00971006  RH  049%=      5-min Rain = 0
KPD2 101347Z 34003KT 10/M01 A297 RMK A01 T00971006  RH  049%=      5-min Rain = 0
KPD2 101348Z 35003KT 10/M01 A297 RMK A01 T00961006  RH  049%=      5-min Rain = 0
KPD2 101349Z 00002KT 10/M01 A2969 RMK A01 T00961006  RH  049%=      5-min Rain = 0
KPD2 101350Z 03001KT 10/M01 A2969 RMK A01 T00961005  RH  049%=      5-min Rain = 0
KPD2 101351Z 07000KT 10/M01 A2969 RMK A01 T00961006  RH  049%=      5-min Rain = 0
KPD2 101352Z 15001KT 10/M01 A2969 RMK A01 T00961006  RH  049%=      5-min Rain = 0
KPD2 101353Z 17002KT 10/M01 A2969 RMK A01 T00961006  RH  049%=      5-min Rain = 0
KPD2 101354Z 16003KT 10/M01 A2969 RMK A01 T00961006  RH  049%=      5-min Rain = 0
KPD2 101355Z 14004KT 10/M01 A297 RMK A01 T00971006  RH  049%=      5-min Rain = 0
KPD2 101356Z 13004KT 10/M01 A297 RMK A01 T00981006  RH  049%=      5-min Rain = 0
KPD2 101357Z 12004KT 10/M01 A2969 RMK A01 T00981006  RH  048%=      5-min Rain = 0
KPD2 101358Z 11003KT 10/M01 A2969 RMK A01 T00981006  RH  048%=      5-min Rain = 0
KPD2 101359Z 10003KT 10/M01 A2969 RMK A01 T00971006  RH  049%=      5-min Rain = 0
KPD2 101400Z 08004KT 10/M01 A2969 RMK A01 T00981006  RH  048%=      5-min Rain = 0
KPD2 101401Z 09003KT 10/M01 A2969 RMK A01 T00991006  RH  048%=      5-min Rain = 0
KPD2 101402Z 08003KT 10/M01 A2969 RMK A01 T01001006  RH  048%=      5-min Rain = 0
KPD2 101403Z 06003KT 10/M01 A2969 RMK A01 T01011005  RH  048%=      5-min Rain = 0
KPD2 101404Z 06003KT 10/M01 A2969 RMK A01 T01011006  RH  047%=      5-min Rain = 0
KPD2 101405Z 03003KT 10/M01 A297 RMK A01 T01021006  RH  047%=      5-min Rain = 0
KPD2 101406Z 36003KT 10/M01 A297 RMK A01 T01031006  RH  047%=      5-min Rain = 0
KPD2 101407Z 01003KT 10/M01 A297 RMK A01 T01031006  RH  047%=      5-min Rain = 0
KPD2 101408Z 03004KT 10/M01 A297 RMK A01 T01041006  RH  046%=      5-min Rain = 0
KPD2 101409Z 05002KT 10/M01 A297 RMK A01 T01041006  RH  046%=      5-min Rain = 0
KPD2 101410Z 09001KT 10/M01 A297 RMK A01 T01041006  RH  046%=      5-min Rain = 0
KPD2 101411Z 14002KT 11/M01 A297 RMK A01 T01051006  RH  046%=      5-min Rain = 0
KPD2 101412Z 24002KT 11/M01 A297 RMK A01 T01051007  RH  046%=      5-min Rain = 0
KPD2 101413Z 25003KT 11/M01 A297 RMK A01 T01051006  RH  046%=      5-min Rain = 0
KPD2 101414Z 27003KT 10/M01 A297 RMK A01 T01031008  RH  046%=      5-min Rain = 0
KPD2 101415Z 28002KT 10/M01 A297 RMK A01 T01011008  RH  047%=      5-min Rain = 0
KPD2 101416Z 31003KT 10/M01 A297 RMK A01 T00991008  RH  047%=      5-min Rain = 0
KPD2 101417Z 34002KT 10/M01 A297 RMK A01 T00981008  RH  048%=      5-min Rain = 0
KPD2 101418Z 35003KT 10/M01 A297 RMK A01 T00961008  RH  048%=      5-min Rain = 0
KPD2 101419Z 20000KT 10/M01 A297 RMK A01 T00971007  RH  048%=      5-min Rain = 0
KPD2 101420Z 15001KT 10/M01 A297 RMK A01 T01011006  RH  047%=      5-min Rain = 0
KPD2 101421Z 18002KT 10/M01 A297 RMK A01 T01011007  RH  047%=      5-min Rain = 0
KPD2 101422Z 13002KT 10/M01 A2971 RMK A01 T01011007  RH  047%=      5-min Rain = 0
KPD2 101423Z 12000KT 10/M01 A2971 RMK A01 T01011007  RH  047%=      5-min Rain = 0
KPD2 101424Z 23000KT 10/M01 A2971 RMK A01 T01021007  RH  047%=      5-min Rain = 0
KPD2 101425Z 23000KT 10/M01 A2971 RMK A01 T01031007  RH  046%=      5-min Rain = 0
KPD2 101426Z 00000KT 10/M01 A2971 RMK A01 T01041007  RH  046%=      5-min Rain = 0
KPD2 101427Z 17000KT 11/M01 A2971 RMK A01 T01051007  RH  046%=      5-min Rain = 0
KPD2 101428Z 17000KT 11/M01 A2971 RMK A01 T01051007  RH  046%=      5-min Rain = 0
KPD2 101429Z 15002KT 11/M01 A2971 RMK A01 T01061007  RH  045%=      5-min Rain = 0
KPD2 101430Z 12003KT 11/M01 A2971 RMK A01 T01051008  RH  046%=      5-min Rain = 0
KPD2 101431Z 11004KT 10/M01 A297 RMK A01 T01031007  RH  046%=      5-min Rain = 0
KPD2 101432Z 14005KT 10/M01 A2971 RMK A01 T01021008  RH  046%=      5-min Rain = 0
KPD2 101433Z 14004KT 10/M01 A2971 RMK A01 T01021008  RH  046%=      5-min Rain = 0
KPD2 101434Z 11003KT 10/M01 A297 RMK A01 T01021007  RH  047%=      5-min Rain = 0
KPD2 101435Z 08002KT 10/M01 A297 RMK A01 T01011007  RH  047%=      5-min Rain = 0
KPD2 101436Z 04002KT 10/M01 A297 RMK A01 T01001007  RH  047%=      5-min Rain = 0
KPD2 101437Z 34003KT 10/M01 A297 RMK A01 T01001007  RH  047%=      5-min Rain = 0
KPD2 101438Z 33003KT 10/M01 A297 RMK A01 T01001007  RH  047%=      5-min Rain = 0
KPD2 101439Z 34004KT 10/M01 A297 RMK A01 T00991007  RH  048%=      5-min Rain = 0
KPD2 101440Z 34005KT 10/M01 A297 RMK A01 T00991007  RH  048%=      5-min Rain = 0
KPD2 101441Z 35005KT 10/M01 A297 RMK A01 T00981007  RH  048%=      5-min Rain = 0
KPD2 101442Z 35006KT 10/M01 A297 RMK A01 T00991007  RH  048%=      5-min Rain = 0
KPD2 101443Z 35005KT 10/M01 A297 RMK A01 T01001006  RH  048%=      5-min Rain = 0
KPD2 101444Z 35005KT 10/M01 A2969 RMK A01 T01031005  RH  047%=      5-min Rain = 0
KPD2 101445Z 34005KT 11/M00 A2969 RMK A01 T01061004  RH  046%=      5-min Rain = 0
KPD2 101446Z 33004KT 11/M01 A2969 RMK A01 T01081005  RH  046%=      5-min Rain = 0
KPD2 101447Z 29003KT 11/M00 A2969 RMK A01 T01101004  RH  045%=      5-min Rain = 0
KPD2 101448Z 30004KT 11/M01 A2969 RMK A01 T01101005  RH  045%=      5-min Rain = 0
KPD2 101449Z 30005KT 11/M01 A2969 RMK A01 T01091006  RH  045%=      5-min Rain = 0
KPD2 101450Z 30007KT 11/M01 A2969 RMK A01 T01081007  RH  045%=      5-min Rain = 0
KPD2 101451Z 31006KT 11/M01 A2969 RMK A01 T01061007  RH  046%=      5-min Rain = 0
KPD2 101452Z 32005KT 10/M01 A2969 RMK A01 T01041007  RH  046%=      5-min Rain = 0
KPD2 101453Z 29005KT 10/M01 A297 RMK A01 T01031007  RH  047%=      5-min Rain = 0
KPD2 101454Z 27005KT 10/M01 A297 RMK A01 T01031006  RH  047%=      5-min Rain = 0
KPD2 101455Z 26005KT 10/M01 A297 RMK A01 T01031006  RH  047%=      5-min Rain = 0
KPD2 101456Z 26005KT 10/M01 A2969 RMK A01 T01041006  RH  047%=      5-min Rain = 0
KPD2 101457Z 27005KT 10/M01 A2969 RMK A01 T01041005  RH  047%=      5-min Rain = 0
KPD2 101458Z 29006KT 10/M01 A2969 RMK A01 T01041005  RH  047%=      5-min Rain = 0
KPD2 101459Z 29005KT 10/M01 A2969 RMK A01 T01031005  RH  047%=      5-min Rain = 0
KPD2 101500Z 28003KT 10/M01 A2969 RMK A01 T01031005  RH  047%=      5-min Rain = 0
KPD2 101501Z 29003KT 10/M01 A2969 RMK A01 T01031005  RH  047%=      5-min Rain = 0
KPD2 101502Z 28003KT 10/M01 A2969 RMK A01 T01021005  RH  047%=      5-min Rain = 0
KPD2 101503Z 28002KT 10/M01 A297 RMK A01 T01021005  RH  047%=      5-min Rain = 0
KPD2 101504Z 24002KT 10/M01 A297 RMK A01 T01021005  RH  047%=      5-min Rain = 0
KPD2 101505Z 23002KT 10/M00 A297 RMK A01 T01021004  RH  048%=      5-min Rain = 0
KPD2 101506Z 24003KT 10/M01 A297 RMK A01 T01021005  RH  047%=      5-min Rain = 0
KPD2 101507Z 27002KT 10/M01 A297 RMK A01 T01031005  RH  047%=      5-min Rain = 0
KPD2 101508Z 30003KT 10/M01 A297 RMK A01 T01031005  RH  047%=      5-min Rain = 0
KPD2 101509Z 31004KT 10/M00 A297 RMK A01 T01031004  RH  047%=      5-min Rain = 0
KPD2 101510Z 33005KT 10/M01 A297 RMK A01 T01031005  RH  047%=      5-min Rain = 0
KPD2 101511Z 34005KT 10/M00 A297 RMK A01 T01031004  RH  047%=      5-min Rain = 0
KPD2 101512Z 33004KT 10/M01 A297 RMK A01 T01021005  RH  047%=      5-min Rain = 0
KPD2 101513Z 35001KT 10/M01 A297 RMK A01 T01021005  RH  048%=      5-min Rain = 0
KPD2 101514Z 05000KT 10/M00 A297 RMK A01 T01021004  RH  048%=      5-min Rain = 0
KPD2 101515Z 15001KT 10/M01 A297 RMK A01 T01021005  RH  047%=      5-min Rain = 0
KPD2 101516Z 17001KT 10/M00 A297 RMK A01 T01031004  RH  047%=      5-min Rain = 0
KPD2 101517Z 03001KT 10/M00 A297 RMK A01 T01031004  RH  047%=      5-min Rain = 0
KPD2 101518Z 03002KT 10/M00 A297 RMK A01 T01031003  RH  048%=      5-min Rain = 0
KPD2 101519Z 20001KT 10/M00 A297 RMK A01 T01041004  RH  047%=      5-min Rain = 0
KPD2 101520Z 24001KT 10/M00 A297 RMK A01 T01041004  RH  047%=      5-min Rain = 0
KPD2 101521Z 34001KT 10/M00 A297 RMK A01 T01041004  RH  047%=      5-min Rain = 0
KPD2 101522Z 34001KT 11/M00 A297 RMK A01 T01051003  RH  047%=      5-min Rain = 0
KPD2 101523Z 03000KT 11/M00 A297 RMK A01 T01051004  RH  047%=      5-min Rain = 0
KPD2 101524Z 07000KT 11/M00 A297 RMK A01 T01061004  RH  046%=      5-min Rain = 0
KPD2 101525Z 35002KT 11/M00 A297 RMK A01 T01081003  RH  046%=      5-min Rain = 0
KPD2 101526Z 02004KT 11/M00 A297 RMK A01 T01091003  RH  046%=      5-min Rain = 0
KPD2 101527Z 34003KT 11/M00 A297 RMK A01 T01081003  RH  046%=      5-min Rain = 0
KPD2 101528Z 01002KT 11/M00 A297 RMK A01 T01081004  RH  046%=      5-min Rain = 0
KPD2 101529Z 04002KT 11/M00 A297 RMK A01 T01081003  RH  046%=      5-min Rain = 0
KPD2 101530Z 02003KT 11/M00 A297 RMK A01 T01111001  RH  046%=      5-min Rain = 0
KPD2 101531Z 35002KT 11/00 A297 RMK A01 T01140001  RH  046%=      5-min Rain = 0
KPD2 101532Z 36001KT 12/00 A297 RMK A01 T01150001  RH  045%=      5-min Rain = 0
KPD2 101533Z 01002KT 12/00 A297 RMK A01 T01160001  RH  045%=      5-min Rain = 0
KPD2 101534Z 36001KT 12/00 A297 RMK A01 T01190002  RH  045%=      5-min Rain = 0
KPD2 101535Z 35000KT 12/00 A297 RMK A01 T01220003  RH  044%=      5-min Rain = 0
KPD2 101536Z 01001KT 13/00 A297 RMK A01 T01250002  RH  043%=      5-min Rain = 0
KPD2 101537Z 01001KT 13/00 A297 RMK A01 T01280002  RH  042%=      5-min Rain = 0
KPD2 101538Z 02001KT 13/00 A297 RMK A01 T01300001  RH  041%=      5-min Rain = 0
KPD2 101539Z 03001KT 13/00 A297 RMK A01 T01320001  RH  040%=      5-min Rain = 0
KPD2 101540Z 06002KT 14/00 A297 RMK A01 T01350002  RH  040%=      5-min Rain = 0
KPD2 101541Z 06003KT 14/00 A297 RMK A01 T01380002  RH  039%=      5-min Rain = 0
KPD2 101542Z 04002KT 14/00 A297 RMK A01 T01400002  RH  039%=      5-min Rain = 0
KPD2 101543Z 03003KT 14/00 A2969 RMK A01 T01420002  RH  038%=      5-min Rain = 0
KPD2 101544Z 04004KT 14/00 A2969 RMK A01 T01420001  RH  038%=      5-min Rain = 0
KPD2 101545Z 05003KT 14/00 A2969 RMK A01 T01420002  RH  038%=      5-min Rain = 0
KPD2 101546Z 06003KT 14/00 A2969 RMK A01 T01430002  RH  038%=      5-min Rain = 0
KPD2 101547Z 07003KT 14/00 A2969 RMK A01 T01430003  RH  038%=      5-min Rain = 0
KPD2 101548Z 04002KT 15/00 A2969 RMK A01 T01450004  RH  038%=      5-min Rain = 0
KPD2 101549Z 01002KT 15/00 A297 RMK A01 T01460003  RH  038%=      5-min Rain = 0
KPD2 101550Z 02003KT 15/01 A2969 RMK A01 T01470005  RH  038%=      5-min Rain = 0
KPD2 101551Z 00003KT 15/01 A2969 RMK A01 T01490006  RH  038%=      5-min Rain = 0
KPD2 101552Z 02002KT 15/01 A2969 RMK A01 T01520007  RH  037%=      5-min Rain = 0
KPD2 101553Z 01002KT 16/01 A297 RMK A01 T01550006  RH  036%=      5-min Rain = 0
KPD2 101554Z 33002KT 16/01 A297 RMK A01 T01570007  RH  036%=      5-min Rain = 0
KPD2 101555Z 35003KT 16/01 A297 RMK A01 T01590005  RH  035%=      5-min Rain = 0
KPD2 101556Z 02002KT 16/01 A297 RMK A01 T01590005  RH  035%=      5-min Rain = 0
KPD2 101557Z 36003KT 16/01 A297 RMK A01 T01590006  RH  035%=      5-min Rain = 0
KPD2 101558Z 34003KT 16/01 A297 RMK A01 T01600006  RH  035%=      5-min Rain = 0
KPD2 101559Z 34004KT 16/01 A297 RMK A01 T01600005  RH  035%=      5-min Rain = 0
KPD2 101600Z 34002KT 16/00 A297 RMK A01 T01600004  RH  035%=      5-min Rain = 0
KPD2 101601Z 02003KT 16/00 A297 RMK A01 T01580004  RH  035%=      5-min Rain = 0
KPD2 101602Z 02003KT 16/00 A297 RMK A01 T01560004  RH  035%=      5-min Rain = 0
KPD2 101603Z 01004KT 16/01 A297 RMK A01 T01570006  RH  036%=      5-min Rain = 0
KPD2 101604Z 02005KT 16/01 A2969 RMK A01 T01580007  RH  036%=      5-min Rain = 0
KPD2 101605Z 07004KT 16/01 A2969 RMK A01 T01600008  RH  036%=      5-min Rain = 0
KPD2 101606Z 10004KT 16/01 A2969 RMK A01 T01620008  RH  035%=      5-min Rain = 0
KPD2 101607Z 11003KT 16/01 A2969 RMK A01 T01630008  RH  035%=      5-min Rain = 0
KPD2 101608Z 13002KT 17/01 A2969 RMK A01 T01650009  RH  035%=      5-min Rain = 0
KPD2 101609Z 11002KT 17/01 A2969 RMK A01 T01660008  RH  034%=      5-min Rain = 0
KPD2 101610Z 32000KT 17/01 A2969 RMK A01 T01660008  RH  034%=      5-min Rain = 0
KPD2 101611Z 36002KT 17/01 A2969 RMK A01 T01670008  RH  034%=      5-min Rain = 0
KPD2 101612Z 35002KT 17/01 A2969 RMK A01 T01670008  RH  034%=      5-min Rain = 0
KPD2 101613Z 03001KT 17/01 A2969 RMK A01 T01680008  RH  034%=      5-min Rain = 0
KPD2 101614Z 07001KT 17/01 A2969 RMK A01 T01680008  RH  034%=      5-min Rain = 0
KPD2 101615Z 02002KT 17/01 A2969 RMK A01 T01680009  RH  034%=      5-min Rain = 0
KPD2 101616Z 04002KT 17/01 A2969 RMK A01 T01680009  RH  034%=      5-min Rain = 0
KPD2 101617Z 12003KT 17/01 A2969 RMK A01 T01670009  RH  034%=      5-min Rain = 0
KPD2 101618Z 12003KT 17/01 A2969 RMK A01 T01660009  RH  035%=      5-min Rain = 0
KPD2 101619Z 15002KT 17/01 A2969 RMK A01 T01650008  RH  035%=      5-min Rain = 0
KPD2 101620Z 19004KT 16/01 A2969 RMK A01 T01630009  RH  035%=      5-min Rain = 0
KPD2 101621Z 21005KT 16/01 A2969 RMK A01 T01630009  RH  035%=      5-min Rain = 0
KPD2 101622Z 22006KT 16/01 A2969 RMK A01 T01610009  RH  036%=      5-min Rain = 0
KPD2 101623Z 18005KT 16/01 A2969 RMK A01 T01610009  RH  036%=      5-min Rain = 0
KPD2 101624Z 19005KT 16/01 A2969 RMK A01 T01610009  RH  036%=      5-min Rain = 0
KPD2 101625Z 16005KT 16/01 A2969 RMK A01 T01610009  RH  036%=      5-min Rain = 0
KPD2 101626Z 17006KT 16/01 A2969 RMK A01 T01640010  RH  035%=      5-min Rain = 0
KPD2 101627Z 18004KT 17/01 A2969 RMK A01 T01660010  RH  035%=      5-min Rain = 0
KPD2 101628Z 18005KT 17/01 A2969 RMK A01 T01680009  RH  034%=      5-min Rain = 0
KPD2 101629Z 19005KT 17/01 A2969 RMK A01 T01700010  RH  034%=      5-min Rain = 0
KPD2 101630Z 21008KT 17/01 A2969 RMK A01 T01710009  RH  034%=      5-min Rain = 0
KPD2 101631Z 23004KT 17/01 A2969 RMK A01 T01700008  RH  034%=      5-min Rain = 0
KPD2 101632Z 21007KT 17/01 A2969 RMK A01 T01700009  RH  034%=      5-min Rain = 0
KPD2 101633Z 22007KT 17/01 A2969 RMK A01 T01700008  RH  034%=      5-min Rain = 0
KPD2 101634Z 26002KT 17/01 A2968 RMK A01 T01710010  RH  034%=      5-min Rain = 0
KPD2 101635Z 26006KT 17/01 A2968 RMK A01 T01730011  RH  033%=      5-min Rain = 0
KPD2 101636Z 26007KT 17/01 A2968 RMK A01 T01740010  RH  033%=      5-min Rain = 0
KPD2 101637Z 24003KT 17/01 A2968 RMK A01 T01740009  RH  033%=      5-min Rain = 0
KPD2 101638Z 27003KT 17/01 A2968 RMK A01 T01740010  RH  033%=      5-min Rain = 0
KPD2 101639Z 27005KT 18/01 A2968 RMK A01 T01760010  RH  033%=      5-min Rain = 0
KPD2 101640Z 27004KT 18/01 A2968 RMK A01 T01760009  RH  032%=      5-min Rain = 0
KPD2 101641Z 20002KT 18/01 A2968 RMK A01 T01770009  RH  032%=      5-min Rain = 0
KPD2 101642Z 21005KT 18/01 A2968 RMK A01 T01790010  RH  032%=      5-min Rain = 0
KPD2 101643Z 22004KT 18/01 A2968 RMK A01 T01790009  RH  032%=      5-min Rain = 0
KPD2 101644Z 18005KT 18/01 A2968 RMK A01 T01790009  RH  032%=      5-min Rain = 0
KPD2 101645Z 20002KT 18/01 A2968 RMK A01 T01780009  RH  032%=      5-min Rain = 0
KPD2 101646Z 28003KT 18/01 A2968 RMK A01 T01780009  RH  032%=      5-min Rain = 0
KPD2 101647Z 24002KT 18/01 A2968 RMK A01 T01790009  RH  032%=      5-min Rain = 0
KPD2 101648Z 19002KT 18/01 A2968 RMK A01 T01790009  RH  032%=      5-min Rain = 0
KPD2 101649Z 28005KT 18/01 A2968 RMK A01 T01810009  RH  031%=      5-min Rain = 0
KPD2 101650Z 28002KT 18/01 A2967 RMK A01 T01800008  RH  031%=      5-min Rain = 0
KPD2 101651Z 26004KT 18/01 A2968 RMK A01 T01790009  RH  032%=      5-min Rain = 0
KPD2 101652Z 25004KT 18/01 A2967 RMK A01 T01800009  RH  032%=      5-min Rain = 0
KPD2 101653Z 32003KT 18/01 A2967 RMK A01 T01810008  RH  031%=      5-min Rain = 0
KPD2 101654Z 21003KT 18/01 A2967 RMK A01 T01840010  RH  031%=      5-min Rain = 0
KPD2 101655Z 23005G11KT 18/01 A2967 RMK A01 T01840008  RH  031%=      5-min Rain = 0
KPD2 101656Z 24007KT 18/01 A2967 RMK A01 T01840008  RH  030%=      5-min Rain = 0
KPD2 101657Z 26008KT 19/01 A2967 RMK A01 T01860008  RH  030%=      5-min Rain = 0
KPD2 101658Z 29005KT 19/01 A2967 RMK A01 T01880008  RH  030%=      5-min Rain = 0
KPD2 101659Z 32003KT 19/01 A2967 RMK A01 T01910010  RH  030%=      5-min Rain = 0
KPD2 101700Z 24003G8KT 19/01 A2967 RMK A01 T01930010  RH  029%=      5-min Rain = 0
KPD2 101701Z 25007KT 20/01 A2967 RMK A01 T01950010  RH  029%=      5-min Rain = 0
KPD2 101702Z 27002KT 20/01 A2967 RMK A01 T01960009  RH  029%=      5-min Rain = 0
KPD2 101703Z 29002KT 20/01 A2967 RMK A01 T01980009  RH  028%=      5-min Rain = 0
KPD2 101704Z 25003KT 20/01 A2967 RMK A01 T02000010  RH  028%=      5-min Rain = 0
KPD2 101705Z 25004G9KT 20/01 A2967 RMK A01 T02020011  RH  028%=      5-min Rain = 0
KPD2 101706Z 25002KT 20/01 A2967 RMK A01 T02030009  RH  027%=      5-min Rain = 0
KPD2 101707Z 25004KT 20/01 A2967 RMK A01 T02040010  RH  027%=      5-min Rain = 0
KPD2 101708Z 23004KT 21/01 A2967 RMK A01 T02060010  RH  027%=      5-min Rain = 0
KPD2 101709Z 21005KT 21/01 A2967 RMK A01 T02060008  RH  027%=      5-min Rain = 0
KPD2 101710Z 28007KT 21/01 A2967 RMK A01 T02070008  RH  027%=      5-min Rain = 0
KPD2 101711Z 28007KT 21/01 A2967 RMK A01 T02070007  RH  026%=      5-min Rain = 0
KPD2 101712Z 25006KT 21/01 A2967 RMK A01 T02050007  RH  027%=      5-min Rain = 0
KPD2 101713Z 23006KT 21/01 A2967 RMK A01 T02060007  RH  027%=      5-min Rain = 0
KPD2 101714Z 24004KT 21/01 A2967 RMK A01 T02060007  RH  027%=      5-min Rain = 0
KPD2 101715Z 30007KT 21/01 A2966 RMK A01 T02070009  RH  027%=      5-min Rain = 0
KPD2 101716Z 30009KT 21/01 A2966 RMK A01 T02080009  RH  027%=      5-min Rain = 0
KPD2 101717Z 29007KT 21/01 A2966 RMK A01 T02090008  RH  026%=      5-min Rain = 0
KPD2 101718Z 29007KT 21/01 A2966 RMK A01 T02080007  RH  026%=      5-min Rain = 0
KPD2 101719Z 31007KT 21/01 A2966 RMK A01 T02080008  RH  026%=      5-min Rain = 0
KPD2 101720Z 29005KT 21/01 A2966 RMK A01 T02090009  RH  026%=      5-min Rain = 0
KPD2 101721Z 29008G13KT 21/01 A2966 RMK A01 T02110009  RH  026%=      5-min Rain = 0
KPD2 101722Z 29007KT 21/01 A2966 RMK A01 T02120007  RH  026%=      5-min Rain = 0
KPD2 101723Z 28005KT 21/01 A2966 RMK A01 T02130007  RH  025%=      5-min Rain = 0
KPD2 101724Z 29005KT 21/01 A2966 RMK A01 T02130007  RH  025%=      5-min Rain = 0
KPD2 101725Z 28007G12KT 21/01 A2965 RMK A01 T02140008  RH  025%=      5-min Rain = 0
KPD2 101726Z 26004KT 22/01 A2965 RMK A01 T02150007  RH  025%=      5-min Rain = 0
KPD2 101727Z 25004KT 22/01 A2965 RMK A01 T02150009  RH  025%=      5-min Rain = 0
KPD2 101728Z 27006G11KT 22/01 A2965 RMK A01 T02180007  RH  025%=      5-min Rain = 0
KPD2 101729Z 26009KT 22/01 A2965 RMK A01 T02170005  RH  024%=      5-min Rain = 0
KPD2 101730Z 26008G13KT 22/01 A2965 RMK A01 T02150005  RH  025%=      5-min Rain = 0
KPD2 101731Z 25006KT 22/01 A2965 RMK A01 T02160005  RH  025%=      5-min Rain = 0
KPD2 101732Z 26007KT 22/01 A2965 RMK A01 T02160005  RH  025%=      5-min Rain = 0
KPD2 101733Z 28010KT 22/01 A2965 RMK A01 T02150005  RH  025%=      5-min Rain = 0
KPD2 101734Z 28008KT 22/00 A2965 RMK A01 T02150004  RH  025%=      5-min Rain = 0
KPD2 101735Z 27008KT 21/00 A2964 RMK A01 T02140002  RH  024%=      5-min Rain = 0
KPD2 101736Z 26009KT 21/00 A2964 RMK A01 T02140003  RH  025%=      5-min Rain = 0
KPD2 101737Z 28009KT 21/00 A2964 RMK A01 T02140004  RH  025%=      5-min Rain = 0
KPD2 101738Z 28011G16KT 22/00 A2964 RMK A01 T02160002  RH  024%=      5-min Rain = 0
KPD2 101739Z 28010G15KT 22/M00 A2964 RMK A01 T02161001  RH  024%=      5-min Rain = 0
KPD2 101740Z 28010KT 21/00 A2964 RMK A01 T021300-0  RH  024%=      5-min Rain = 0
KPD2 101741Z 27007KT 21/00 A2965 RMK A01 T02130000  RH  024%=      5-min Rain = 0
KPD2 101742Z 27007KT 21/00 A2964 RMK A01 T02130001  RH  024%=      5-min Rain = 0
KPD2 101743Z 29006KT 21/00 A2964 RMK A01 T02140001  RH  024%=      5-min Rain = 0
KPD2 101744Z 28007KT 22/00 A2964 RMK A01 T02150000  RH  024%=      5-min Rain = 0
KPD2 101745Z 29007G13KT 22/00 A2964 RMK A01 T02150001  RH  024%=      5-min Rain = 0
KPD2 101746Z 28011G17KT 22/00 A2964 RMK A01 T02160000  RH  024%=      5-min Rain = 0
KPD2 101747Z 29013KT 22/00 A2964 RMK A01 T021600-0  RH  024%=      5-min Rain = 0
KPD2 101748Z 27008G15KT 22/M00 A2964 RMK A01 T02151001  RH  024%=      5-min Rain = 0
KPD2 101749Z 27008G15KT 22/M00 A2964 RMK A01 T02151001  RH  024%=      5-min Rain = 0
KPD2 101750Z 29010KT 22/M00 A2964 RMK A01 T02151001  RH  024%=      5-min Rain = 0
KPD2 101751Z 27008KT 22/00 A2964 RMK A01 T02170000  RH  024%=      5-min Rain = 0
KPD2 101752Z 26009G14KT 22/00 A2964 RMK A01 T021800-0  RH  023%=      5-min Rain = 0
KPD2 101753Z 28008G14KT 22/M00 A2963 RMK A01 T02181001  RH  023%=      5-min Rain = 0
KPD2 101754Z 28011G18KT 22/M00 A2963 RMK A01 T02181001  RH  023%=      5-min Rain = 0
KPD2 101755Z 27007KT 22/M00 A2963 RMK A01 T02161001  RH  023%=      5-min Rain = 0
KPD2 101756Z 27007KT 22/00 A2963 RMK A01 T02170000  RH  024%=      5-min Rain = 0
KPD2 101757Z 28007KT 22/M00 A2963 RMK A01 T02181001  RH  023%=      5-min Rain = 0
KPD2 101758Z 26007KT 22/M00 A2963 RMK A01 T02161002  RH  023%=      5-min Rain = 0
KPD2 101759Z 25007G12KT 22/00 A2963 RMK A01 T021700-0  RH  024%=      5-min Rain = 0
KPD2 101800Z 28008KT 22/M00 A2963 RMK A01 T02181001  RH  023%=      5-min Rain = 0
KPD2 101801Z 29007G13KT 22/M00 A2963 RMK A01 T02181001  RH  023%=      5-min Rain = 0
KPD2 101802Z 28004KT 22/00 A2963 RMK A01 T021700-0  RH  023%=      5-min Rain = 0
KPD2 101803Z 27007KT 22/00 A2963 RMK A01 T02190000  RH  023%=      5-min Rain = 0
KPD2 101804Z 26006KT 22/00 A2963 RMK A01 T02200000  RH  023%=      5-min Rain = 0
KPD2 101805Z 26004KT 22/00 A2962 RMK A01 T02230002  RH  023%=      5-min Rain = 0
KPD2 101806Z 26003KT 23/00 A2962 RMK A01 T02250002  RH  023%=      5-min Rain = 0
KPD2 101807Z 29003KT 23/00 A2962 RMK A01 T02270002  RH  022%=      5-min Rain = 0
KPD2 101808Z 26004KT 23/00 A2962 RMK A01 T022800-0  RH  022%=      5-min Rain = 0
KPD2 101809Z 28009KT 23/00 A2962 RMK A01 T02280001  RH  022%=      5-min Rain = 0
KPD2 101810Z 28007KT 23/00 A2961 RMK A01 T02270000  RH  022%=      5-min Rain = 0
KPD2 101811Z 29007KT 23/00 A2961 RMK A01 T02280002  RH  022%=      5-min Rain = 0
KPD2 101812Z 26007KT 23/00 A2961 RMK A01 T02310002  RH  022%=      5-min Rain = 0
KPD2 101813Z 24007KT 23/00 A2961 RMK A01 T02330003  RH  022%=      5-min Rain = 0
KPD2 101814Z 27006KT 23/00 A2961 RMK A01 T02340000  RH  021%=      5-min Rain = 0
KPD2 101815Z 27005KT 23/00 A2961 RMK A01 T02340002  RH  022%=      5-min Rain = 0
KPD2 101816Z 28009KT 24/00 A2961 RMK A01 T02350001  RH  021%=      5-min Rain = 0
KPD2 101817Z 22007KT 24/00 A2961 RMK A01 T02350003  RH  022%=      5-min Rain = 0
KPD2 101818Z 23009KT 24/00 A2961 RMK A01 T02380004  RH  021%=      5-min Rain = 0
KPD2 101819Z 22007KT 24/00 A2961 RMK A01 T02410003  RH  021%=      5-min Rain = 0
KPD2 101820Z 28005G12KT 24/00 A2961 RMK A01 T02420003  RH  021%=      5-min Rain = 0
KPD2 101821Z 28008G13KT 24/00 A2961 RMK A01 T02430004  RH  021%=      5-min Rain = 0
KPD2 101822Z 30009KT 24/00 A296 RMK A01 T02420002  RH  020%=      5-min Rain = 0
KPD2 101823Z 27008G15KT 24/00 A296 RMK A01 T02410002  RH  021%=      5-min Rain = 0
KPD2 101824Z 28010KT 24/00 A296 RMK A01 T02380000  RH  021%=      5-min Rain = 0
KPD2 101825Z 28009KT 24/00 A296 RMK A01 T02350000  RH  021%=      5-min Rain = 0
KPD2 101826Z 30010KT 23/00 A296 RMK A01 T02330001  RH  021%=      5-min Rain = 0
KPD2 101827Z 26008KT 23/00 A296 RMK A01 T02330001  RH  022%=      5-min Rain = 0
KPD2 101828Z 28004G9KT 23/00 A296 RMK A01 T02320001  RH  022%=      5-min Rain = 0
KPD2 101829Z 29010KT 23/00 A296 RMK A01 T02320001  RH  022%=      5-min Rain = 0
KPD2 101830Z 28009KT 23/00 A296 RMK A01 T02330002  RH  022%=      5-min Rain = 0
KPD2 101831Z 28010KT 23/00 A2959 RMK A01 T02340002  RH  022%=      5-min Rain = 0
KPD2 101832Z 29014G19KT 24/00 A2959 RMK A01 T02350002  RH  021%=      5-min Rain = 0
KPD2 101833Z 27010KT 23/00 A296 RMK A01 T02340000  RH  021%=      5-min Rain = 0
KPD2 101834Z 27009G14KT 23/00 A2959 RMK A01 T02330000  RH  021%=      5-min Rain = 0
KPD2 101835Z 28010G16KT 23/00 A2959 RMK A01 T02330000  RH  021%=      5-min Rain = 0
KPD2 101836Z 29013KT 23/00 A2959 RMK A01 T02340002  RH  021%=      5-min Rain = 0
KPD2 101837Z 27011KT 24/00 A2959 RMK A01 T02350000  RH  021%=      5-min Rain = 0
KPD2 101838Z 27013KT 23/00 A2959 RMK A01 T023300-0  RH  021%=      5-min Rain = 0
KPD2 101839Z 28011G16KT 23/00 A2959 RMK A01 T023300-0  RH  021%=      5-min Rain = 0
KPD2 101840Z 29010KT 23/00 A2959 RMK A01 T023300-0  RH  021%=      5-min Rain = 0
KPD2 101841Z 28009KT 23/00 A2959 RMK A01 T02330001  RH  021%=      5-min Rain = 0
KPD2 101842Z 28009KT 23/00 A2958 RMK A01 T02330000  RH  021%=      5-min Rain = 0
KPD2 101843Z 27009KT 23/00 A2958 RMK A01 T023200-0  RH  021%=      5-min Rain = 0
KPD2 101844Z 27007KT 23/00 A2958 RMK A01 T02320000  RH  021%=      5-min Rain = 0
KPD2 101845Z 28010KT 23/00 A2958 RMK A01 T02340001  RH  021%=      5-min Rain = 0
KPD2 101846Z 28009G14KT 24/00 A2958 RMK A01 T02360002  RH  021%=      5-min Rain = 0
KPD2 101847Z 27008KT 24/00 A2958 RMK A01 T02390002  RH  021%=      5-min Rain = 0
KPD2 101848Z 27008KT 24/00 A2958 RMK A01 T02400002  RH  021%=      5-min Rain = 0
KPD2 101849Z 27010G16KT 24/00 A2958 RMK A01 T02400001  RH  021%=      5-min Rain = 0
KPD2 101850Z 24010KT 24/00 A2957 RMK A01 T02380000  RH  021%=      5-min Rain = 0
KPD2 101851Z 26009KT 24/00 A2957 RMK A01 T02370001  RH  021%=      5-min Rain = 0
KPD2 101852Z 27009G14KT 24/00 A2957 RMK A01 T02370002  RH  021%=      5-min Rain = 0
KPD2 101853Z 28010G15KT 24/00 A2957 RMK A01 T02380001  RH  021%=      5-min Rain = 0
KPD2 101854Z 25005KT 24/00 A2957 RMK A01 T02410004  RH  021%=      5-min Rain = 0
KPD2 101855Z 24008KT 25/01 A2957 RMK A01 T02460005  RH  021%=      5-min Rain = 0
KPD2 101856Z 23011KT 25/00 A2957 RMK A01 T02490003  RH  020%=      5-min Rain = 0
KPD2 101857Z 26009KT 25/00 A2957 RMK A01 T02470001  RH  020%=      5-min Rain = 0
KPD2 101858Z 26009KT 24/00 A2957 RMK A01 T02440001  RH  020%=      5-min Rain = 0
KPD2 101859Z 26008KT 25/00 A2957 RMK A01 T02450002  RH  020%=      5-min Rain = 0
KPD2 101900Z 24006KT 25/00 A2956 RMK A01 T02460001  RH  020%=      5-min Rain = 0
KPD2 101901Z 25008G15KT 25/00 A2956 RMK A01 T02450000  RH  020%=      5-min Rain = 0
KPD2 101902Z 25007KT 25/M00 A2956 RMK A01 T02451001  RH  020%=      5-min Rain = 0
KPD2 101903Z 25007KT 24/M00 A2956 RMK A01 T02421002  RH  020%=      5-min Rain = 0
KPD2 101904Z 24008KT 24/M00 A2956 RMK A01 T02411002  RH  020%=      5-min Rain = 0
KPD2 101905Z 27006KT 24/M00 A2956 RMK A01 T02411002  RH  020%=      5-min Rain = 0
KPD2 101906Z 28007KT 24/M00 A2956 RMK A01 T02411001  RH  020%=      5-min Rain = 0
KPD2 101907Z 27007KT 24/M00 A2955 RMK A01 T02421001  RH  020%=      5-min Rain = 0
KPD2 101908Z 27009KT 24/M00 A2955 RMK A01 T02431001  RH  020%=      5-min Rain = 0
KPD2 101909Z 29010KT 24/M00 A2955 RMK A01 T02431001  RH  020%=      5-min Rain = 0
KPD2 101910Z 29010KT 24/M00 A2955 RMK A01 T02441004  RH  019%=      5-min Rain = 0
KPD2 101911Z 29011KT 24/M00 A2955 RMK A01 T02411004  RH  020%=      5-min Rain = 0
KPD2 101912Z 28011KT 24/M00 A2955 RMK A01 T02411003  RH  020%=      5-min Rain = 0
KPD2 101913Z 27010G16KT 24/M00 A2955 RMK A01 T02411003  RH  020%=      5-min Rain = 0
KPD2 101914Z 26008KT 24/M00 A2955 RMK A01 T02421003  RH  020%=      5-min Rain = 0
KPD2 101915Z 26010KT 24/M00 A2955 RMK A01 T02411003  RH  020%=      5-min Rain = 0
KPD2 101916Z 25013KT 24/M00 A2956 RMK A01 T02411003  RH  020%=      5-min Rain = 0
KPD2 101917Z 23013G22KT 24/M00 A2956 RMK A01 T02411003  RH  020%=      5-min Rain = 0
KPD2 101918Z 23009G19KT 24/M00 A2956 RMK A01 T02411002  RH  020%=      5-min Rain = 0
KPD2 101919Z 23012G18KT 24/M00 A2955 RMK A01 T02411002  RH  020%=      5-min Rain = 0
KPD2 101920Z 26007KT 24/M00 A2955 RMK A01 T02421001  RH  020%=      5-min Rain = 0
KPD2 101921Z 23009KT 24/00 A2956 RMK A01 T024400-0  RH  020%=      5-min Rain = 0
KPD2 101922Z 23014G20KT 24/00 A2955 RMK A01 T024400-0  RH  020%=      5-min Rain = 0
KPD2 101923Z 25010G16KT 24/M00 A2955 RMK A01 T02411002  RH  020%=      5-min Rain = 0
KPD2 101924Z 27008KT 24/M00 A2955 RMK A01 T02391001  RH  020%=      5-min Rain = 0
KPD2 101925Z 27009G14KT 24/00 A2955 RMK A01 T024000-0  RH  020%=      5-min Rain = 0
KPD2 101926Z 28011G19KT 24/00 A2955 RMK A01 T02410001  RH  020%=      5-min Rain = 0
KPD2 101927Z 24006KT 24/00 A2955 RMK A01 T024000-0  RH  020%=      5-min Rain = 0
KPD2 101928Z 29008KT 24/00 A2955 RMK A01 T02390001  RH  021%=      5-min Rain = 0
KPD2 101929Z 24006KT 24/00 A2954 RMK A01 T02400001  RH  021%=      5-min Rain = 0
KPD2 101930Z 24004G11KT 24/00 A2954 RMK A01 T02410002  RH  021%=      5-min Rain = 0
KPD2 101931Z 25005G10KT 24/00 A2954 RMK A01 T02430002  RH  020%=      5-min Rain = 0
KPD2 101932Z 26006G12KT 24/00 A2954 RMK A01 T02440003  RH  020%=      5-min Rain = 0
KPD2 101933Z 26007KT 25/00 A2954 RMK A01 T02470003  RH  020%=      5-min Rain = 0
KPD2 101934Z 29011G20KT 25/00 A2954 RMK A01 T02480003  RH  020%=      5-min Rain = 0
KPD2 101935Z 29012G20KT 25/00 A2954 RMK A01 T02450000  RH  020%=      5-min Rain = 0
KPD2 101936Z 29011G16KT 24/M00 A2954 RMK A01 T02421001  RH  020%=      5-min Rain = 0
KPD2 101937Z 28009G14KT 24/M00 A2954 RMK A01 T02391001  RH  020%=      5-min Rain = 0
KPD2 101938Z 28009G15KT 24/00 A2954 RMK A01 T02400001  RH  021%=      5-min Rain = 0
KPD2 101939Z 28014G19KT 24/00 A2954 RMK A01 T024100-0  RH  020%=      5-min Rain = 0
KPD2 101940Z 28011G16KT 24/M00 A2954 RMK A01 T02411001  RH  020%=      5-min Rain = 0
KPD2 101941Z 25007G14KT 24/M00 A2954 RMK A01 T02411001  RH  020%=      5-min Rain = 0
KPD2 101942Z 26007G15KT 24/00 A2953 RMK A01 T024200-0  RH  020%=      5-min Rain = 0
KPD2 101943Z 25009G15KT 24/M00 A2954 RMK A01 T02421001  RH  020%=      5-min Rain = 0
KPD2 101944Z 24010G18KT 24/00 A2953 RMK A01 T02430000  RH  020%=      5-min Rain = 0
KPD2 101945Z 24008G13KT 24/00 A2953 RMK A01 T024300-0  RH  020%=      5-min Rain = 0
KPD2 101946Z 24007G14KT 24/00 A2953 RMK A01 T02420000  RH  020%=      5-min Rain = 0
KPD2 101947Z 25007G13KT 24/00 A2953 RMK A01 T02420001  RH  020%=      5-min Rain = 0
KPD2 101948Z 23015G25KT 24/00 A2953 RMK A01 T02430001  RH  020%=      5-min Rain = 0
KPD2 101949Z 23014G23KT 24/M00 A2953 RMK A01 T02431001  RH  020%=      5-min Rain = 0
KPD2 101950Z 25015G25KT 24/M00 A2953 RMK A01 T02411002  RH  020%=      5-min Rain = 0
KPD2 101951Z 22010G15KT 24/M00 A2953 RMK A01 T02391003  RH  020%=      5-min Rain = 0
KPD2 101952Z 24008KT 24/M00 A2953 RMK A01 T02391002  RH  020%=      5-min Rain = 0
KPD2 101953Z 24007KT 24/M00 A2952 RMK A01 T02401001  RH  020%=      5-min Rain = 0
KPD2 101954Z 26005KT 24/00 A2953 RMK A01 T02420001  RH  020%=      5-min Rain = 0
KPD2 101955Z 26005KT 24/00 A2952 RMK A01 T02430001  RH  020%=      5-min Rain = 0
KPD2 101956Z 25009G14KT 24/00 A2952 RMK A01 T02440000  RH  020%=      5-min Rain = 0
KPD2 101957Z 24011G19KT 24/00 A2952 RMK A01 T02440000  RH  020%=      5-min Rain = 0
KPD2 101958Z 24015KT 24/00 A2952 RMK A01 T024300-0  RH  020%=      5-min Rain = 0
KPD2 101959Z 24014KT 24/M00 A2952 RMK A01 T02401001  RH  020%=      5-min Rain = 0
KPD2 102000Z 24008G13KT 24/M00 A2952 RMK A01 T02391002  RH  020%=      5-min Rain = 0
KPD2 102001Z 26007KT 24/M00 A2951 RMK A01 T02391001  RH  020%=      5-min Rain = 0
KPD2 102002Z 29007KT 24/00 A2951 RMK A01 T02420000  RH  020%=      5-min Rain = 0
KPD2 102003Z 27007KT 24/00 A2951 RMK A01 T02440001  RH  020%=      5-min Rain = 0
KPD2 102004Z 26007KT 25/00 A2951 RMK A01 T02460001  RH  020%=      5-min Rain = 0
KPD2 102005Z 27011G19KT 25/00 A2951 RMK A01 T02460000  RH  020%=      5-min Rain = 0
KPD2 102006Z 28017KT 25/M00 A2951 RMK A01 T02451002  RH  020%=      5-min Rain = 0
KPD2 102007Z 27012G18KT 24/M00 A2951 RMK A01 T02401003  RH  020%=      5-min Rain = 0
KPD2 102008Z 29012KT 24/M00 A2951 RMK A01 T02381002  RH  020%=      5-min Rain = 0
KPD2 102009Z 29015G23KT 24/M00 A2951 RMK A01 T02381003  RH  020%=      5-min Rain = 0
KPD2 102010Z 29015G26KT 24/M00 A2951 RMK A01 T02371003  RH  020%=      5-min Rain = 0
KPD2 102011Z 27013KT 24/M00 A2951 RMK A01 T02361004  RH  020%=      5-min Rain = 0
KPD2 102012Z 28014G19KT 24/M00 A2951 RMK A01 T02361004  RH  020%=      5-min Rain = 0
KPD2 102013Z 29010G16KT 24/M00 A2951 RMK A01 T02351004  RH  021%=      5-min Rain = 0
KPD2 102014Z 27012KT 24/M00 A2951 RMK A01 T02351003  RH  021%=      5-min Rain = 0
KPD2 102015Z 26009G15KT 24/M00 A2951 RMK A01 T02361003  RH  021%=      5-min Rain = 0
KPD2 102016Z 29005G10KT 24/M00 A295 RMK A01 T02381002  RH  020%=      5-min Rain = 0
KPD2 102017Z 26007KT 24/00 A2951 RMK A01 T024200-0  RH  020%=      5-min Rain = 0
KPD2 102018Z 26005KT 24/00 A295 RMK A01 T024400-0  RH  020%=      5-min Rain = 0
KPD2 102019Z 25007KT 25/00 A2951 RMK A01 T02460001  RH  020%=      5-min Rain = 0
KPD2 102020Z 23008G15KT 25/00 A2951 RMK A01 T02470000  RH  020%=      5-min Rain = 0
KPD2 102021Z 24013G22KT 25/M00 A2951 RMK A01 T02451003  RH  019%=      5-min Rain = 0
KPD2 102022Z 23013KT 24/M00 A295 RMK A01 T02421004  RH  020%=      5-min Rain = 0
KPD2 102023Z 24012G20KT 24/M00 A2951 RMK A01 T02401003  RH  020%=      5-min Rain = 0
KPD2 102024Z 25013G21KT 24/M00 A2951 RMK A01 T02391004  RH  020%=      5-min Rain = 0
KPD2 102025Z 23012G21KT 24/M01 A295 RMK A01 T02381005  RH  020%=      5-min Rain = 0
KPD2 102026Z 23011G18KT 24/M01 A2951 RMK A01 T02381005  RH  020%=      5-min Rain = 0
KPD2 102027Z 24011G16KT 24/M01 A2951 RMK A01 T02381005  RH  020%=      5-min Rain = 0
KPD2 102028Z 25015KT 24/M00 A2951 RMK A01 T02391004  RH  020%=      5-min Rain = 0
KPD2 102029Z 24010KT 24/M01 A2951 RMK A01 T02391006  RH  020%=      5-min Rain = 0
KPD2 102030Z 26012G18KT 24/M01 A2951 RMK A01 T02381006  RH  020%=      5-min Rain = 0
KPD2 102031Z 25011G16KT 24/M01 A295 RMK A01 T02381007  RH  020%=      5-min Rain = 0
KPD2 102032Z 24014G20KT 24/M01 A2951 RMK A01 T02381006  RH  020%=      5-min Rain = 0
KPD2 102033Z 23010G17KT 24/M01 A2951 RMK A01 T02381005  RH  020%=      5-min Rain = 0
KPD2 102034Z 23011G16KT 24/M01 A2951 RMK A01 T02381005  RH  020%=      5-min Rain = 0
KPD2 102035Z 22011G20KT 24/M01 A2951 RMK A01 T02381006  RH  020%=      5-min Rain = 0
KPD2 102036Z 23011G19KT 24/M01 A2951 RMK A01 T02371007  RH  020%=      5-min Rain = 0
KPD2 102037Z 23012G20KT 24/M01 A2951 RMK A01 T02371006  RH  020%=      5-min Rain = 0
KPD2 102038Z 22009G14KT 24/M01 A2951 RMK A01 T02381006  RH  020%=      5-min Rain = 0
KPD2 102039Z 22010G16KT 24/M01 A2951 RMK A01 T02381005  RH  020%=      5-min Rain = 0
KPD2 102040Z 22009G16KT 24/M00 A295 RMK A01 T02381004  RH  020%=      5-min Rain = 0
KPD2 102041Z 22010G21KT 24/M00 A295 RMK A01 T02381004  RH  020%=      5-min Rain = 0
KPD2 102042Z 23011G18KT 24/M00 A295 RMK A01 T02381004  RH  020%=      5-min Rain = 0
KPD2 102043Z 29005KT 24/M00 A295 RMK A01 T02391004  RH  020%=      5-min Rain = 0
KPD2 102044Z 26006KT 24/M00 A295 RMK A01 T02411002  RH  020%=      5-min Rain = 0
KPD2 102045Z 25006KT 24/M00 A295 RMK A01 T02441002  RH  020%=      5-min Rain = 0
KPD2 102046Z 26008KT 25/M00 A295 RMK A01 T02451003  RH  020%=      5-min Rain = 0
KPD2 102047Z 25008KT 25/M00 A295 RMK A01 T02451003  RH  019%=      5-min Rain = 0
KPD2 102048Z 24009G19KT 25/M00 A295 RMK A01 T02451003  RH  019%=      5-min Rain = 0
KPD2 102049Z 25012G23KT 24/M00 A295 RMK A01 T02431004  RH  020%=      5-min Rain = 0
KPD2 102050Z 24013G18KT 24/M00 A295 RMK A01 T02431003  RH  020%=      5-min Rain = 0
KPD2 102051Z 25013KT 24/M00 A295 RMK A01 T02411003  RH  020%=      5-min Rain = 0
KPD2 102052Z 27008KT 24/M00 A295 RMK A01 T02401003  RH  020%=      5-min Rain = 0
KPD2 102053Z 26006G11KT 24/M00 A295 RMK A01 T02401002  RH  020%=      5-min Rain = 0
KPD2 102054Z 23011G16KT 24/M00 A295 RMK A01 T02421002  RH  020%=      5-min Rain = 0
KPD2 102055Z 24011G16KT 24/M00 A2949 RMK A01 T02421003  RH  020%=      5-min Rain = 0
KPD2 102056Z 30005KT 24/M00 A2949 RMK A01 T02401003  RH  020%=      5-min Rain = 0
KPD2 102057Z 26003KT 24/M00 A2949 RMK A01 T02401003  RH  020%=      5-min Rain = 0
KPD2 102058Z 24007KT 24/M00 A2949 RMK A01 T02401003  RH  020%=      5-min Rain = 0
KPD2 102059Z 23007KT 24/M00 A2949 RMK A01 T02411002  RH  020%=      5-min Rain = 0
KPD2 102100Z 23009G15KT 24/M00 A2949 RMK A01 T02391003  RH  020%=      5-min Rain = 0
KPD2 102101Z 22012KT 24/M00 A295 RMK A01 T02391002  RH  020%=      5-min Rain = 0
KPD2 102102Z 25009G14KT 24/M00 A295 RMK A01 T02391004  RH  020%=      5-min Rain = 0
KPD2 102103Z 25014G19KT 24/M01 A295 RMK A01 T02391006  RH  020%=      5-min Rain = 0
KPD2 102104Z 23011G18KT 24/M01 A2949 RMK A01 T02391007  RH  020%=      5-min Rain = 0
KPD2 102105Z 23008G17KT 24/M01 A2949 RMK A01 T02381007  RH  020%=      5-min Rain = 0
KPD2 102106Z 26015G21KT 24/M01 A2949 RMK A01 T02381007  RH  020%=      5-min Rain = 0
KPD2 102107Z 24014G22KT 24/M01 A2949 RMK A01 T02381007  RH  020%=      5-min Rain = 0
KPD2 102108Z 20018G24KT 24/M01 A2949 RMK A01 T02371008  RH  020%=      5-min Rain = 0
KPD2 102109Z 22018G23KT 23/M01 A295 RMK A01 T02341009  RH  020%=      5-min Rain = 0
KPD2 102110Z 22013G19KT 23/M01 A295 RMK A01 T02311010  RH  020%=      5-min Rain = 0
KPD2 102111Z 24012G18KT 23/M01 A295 RMK A01 T02301009  RH  020%=      5-min Rain = 0
KPD2 102112Z 24005KT 23/M01 A2949 RMK A01 T02301008  RH  021%=      5-min Rain = 0
KPD2 102113Z 23009G15KT 23/M01 A2949 RMK A01 T02301008  RH  021%=      5-min Rain = 0
KPD2 102114Z 24008G14KT 23/M01 A2949 RMK A01 T02301009  RH  020%=      5-min Rain = 0
KPD2 102115Z 22009G14KT 23/M01 A2949 RMK A01 T02331008  RH  020%=      5-min Rain = 0
KPD2 102116Z 23008KT 24/M01 A2949 RMK A01 T02351008  RH  020%=      5-min Rain = 0
KPD2 102117Z 22010G15KT 24/M01 A2948 RMK A01 T02371007  RH  020%=      5-min Rain = 0
KPD2 102118Z 23009G15KT 24/M01 A2948 RMK A01 T02381008  RH  020%=      5-min Rain = 0
KPD2 102119Z 24009G19KT 24/M01 A2948 RMK A01 T02391007  RH  020%=      5-min Rain = 0
KPD2 102120Z 23011G17KT 24/M01 A2948 RMK A01 T02391011  RH  019%=      5-min Rain = 0
KPD2 102121Z 25008G13KT 24/M01 A2949 RMK A01 T02401010  RH  019%=      5-min Rain = 0
KPD2 102122Z 27009G15KT 24/M01 A2949 RMK A01 T02401011  RH  019%=      5-min Rain = 0
KPD2 102123Z 24007KT 24/M01 A2949 RMK A01 T02401012  RH  019%=      5-min Rain = 0
KPD2 102124Z 24010KT 24/M01 A2949 RMK A01 T02391011  RH  019%=      5-min Rain = 0
KPD2 102125Z 24007KT 24/M01 A2949 RMK A01 T02401012  RH  019%=      5-min Rain = 0
KPD2 102126Z 24008G15KT 24/M01 A2949 RMK A01 T02411011  RH  019%=      5-min Rain = 0
KPD2 102127Z 23011KT 24/M01 A2949 RMK A01 T02411012  RH  019%=      5-min Rain = 0
KPD2 102128Z 22008G13KT 24/M01 A2949 RMK A01 T02411013  RH  019%=      5-min Rain = 0
KPD2 102129Z 25012G25KT 24/M01 A2949 RMK A01 T02401013  RH  019%=      5-min Rain = 0
KPD2 102130Z 25010G15KT 24/M01 A2948 RMK A01 T02391013  RH  019%=      5-min Rain = 0
KPD2 102131Z 26011KT 24/M01 A2948 RMK A01 T02381013  RH  019%=      5-min Rain = 0
KPD2 102132Z 24010G15KT 24/M01 A2948 RMK A01 T02371013  RH  019%=      5-min Rain = 0
KPD2 102133Z 27010G16KT 24/M01 A2948 RMK A01 T02371012  RH  019%=      5-min Rain = 0
KPD2 102134Z 26008G13KT 24/M01 A2948 RMK A01 T02371012  RH  019%=      5-min Rain = 0
KPD2 102135Z 24013G19KT 24/M01 A2948 RMK A01 T02371012  RH  019%=      5-min Rain = 0
KPD2 102136Z 25008KT 24/M01 A2948 RMK A01 T02371011  RH  019%=      5-min Rain = 0
KPD2 102137Z 25011G17KT 24/M01 A2948 RMK A01 T02381012  RH  019%=      5-min Rain = 0
KPD2 102138Z 25010KT 24/M01 A2948 RMK A01 T02371013  RH  019%=      5-min Rain = 0
KPD2 102139Z 24010KT 24/M01 A2948 RMK A01 T02371013  RH  019%=      5-min Rain = 0
KPD2 102140Z 24009G14KT 24/M01 A2948 RMK A01 T02371012  RH  019%=      5-min Rain = 0
KPD2 102141Z 22010KT 24/M01 A2948 RMK A01 T02371012  RH  019%=      5-min Rain = 0
KPD2 102142Z 23011G18KT 24/M01 A2948 RMK A01 T02371011  RH  019%=      5-min Rain = 0
KPD2 102143Z 21009G15KT 24/M01 A2948 RMK A01 T02361011  RH  019%=      5-min Rain = 0
KPD2 102144Z 21007KT 24/M01 A2948 RMK A01 T02361010  RH  019%=      5-min Rain = 0
KPD2 102145Z 24006KT 24/M01 A2948 RMK A01 T02371009  RH  020%=      5-min Rain = 0
KPD2 102146Z 26009G14KT 24/M01 A2948 RMK A01 T02371009  RH  020%=      5-min Rain = 0
KPD2 102147Z 25010G17KT 24/M01 A2948 RMK A01 T02371009  RH  020%=      5-min Rain = 0
KPD2 102148Z 24007G12KT 24/M01 A2948 RMK A01 T02371009  RH  020%=      5-min Rain = 0
KPD2 102149Z 22009KT 24/M01 A2948 RMK A01 T02361008  RH  020%=      5-min Rain = 0
KPD2 102150Z 25005KT 24/M01 A2947 RMK A01 T02361008  RH  020%=      5-min Rain = 0
KPD2 102151Z 24008G15KT 24/M01 A2947 RMK A01 T02361008  RH  020%=      5-min Rain = 0
KPD2 102152Z 24010G17KT 24/M01 A2947 RMK A01 T02361007  RH  020%=      5-min Rain = 0
KPD2 102153Z 22004G11KT 24/M01 A2947 RMK A01 T02371007  RH  020%=      5-min Rain = 0
KPD2 102154Z 24012G19KT 24/M01 A2948 RMK A01 T02381007  RH  020%=      5-min Rain = 0
KPD2 102155Z 22013G19KT 24/M01 A2948 RMK A01 T02381007  RH  020%=      5-min Rain = 0
KPD2 102156Z 25014G21KT 24/M01 A2948 RMK A01 T02361008  RH  020%=      5-min Rain = 0
KPD2 102157Z 26018G26KT 24/M01 A2948 RMK A01 T02361008  RH  020%=      5-min Rain = 0
KPD2 102158Z 26013G23KT 23/M01 A2948 RMK A01 T02341009  RH  020%=      5-min Rain = 0
KPD2 102159Z 24011G21KT 23/M01 A2948 RMK A01 T02331009  RH  020%=      5-min Rain = 0
KPD2 102200Z 25010G16KT 23/M01 A2948 RMK A01 T02331008  RH  020%=      5-min Rain = 0
KPD2 102201Z 23009KT 23/M01 A2948 RMK A01 T02331008  RH  020%=      5-min Rain = 0
KPD2 102202Z 26011G18KT 23/M01 A2948 RMK A01 T02331008  RH  020%=      5-min Rain = 0
KPD2 102203Z 25010G19KT 23/M01 A2948 RMK A01 T02331007  RH  020%=      5-min Rain = 0
KPD2 102204Z 23010G17KT 23/M01 A2948 RMK A01 T02321007  RH  020%=      5-min Rain = 0
KPD2 102205Z 24011G18KT 23/M01 A2948 RMK A01 T02311007  RH  021%=      5-min Rain = 0
KPD2 102206Z 24013G18KT 23/M01 A2948 RMK A01 T02291006  RH  021%=      5-min Rain = 0
KPD2 102207Z 25007KT 23/M01 A2948 RMK A01 T02281007  RH  021%=      5-min Rain = 0
KPD2 102208Z 23011G18KT 23/M01 A2948 RMK A01 T02281006  RH  021%=      5-min Rain = 0
KPD2 102209Z 26003G8KT 23/M01 A2947 RMK A01 T02281006  RH  021%=      5-min Rain = 0
KPD2 102210Z 25010G15KT 23/M01 A2947 RMK A01 T02291005  RH  021%=      5-min Rain = 0
KPD2 102211Z 22010KT 23/M01 A2948 RMK A01 T02301006  RH  021%=      5-min Rain = 0
KPD2 102212Z 23011G20KT 23/M01 A2947 RMK A01 T02301007  RH  021%=      5-min Rain = 0
KPD2 102213Z 23010G15KT 23/M01 A2948 RMK A01 T02301007  RH  021%=      5-min Rain = 0
KPD2 102214Z 21005KT 23/M01 A2947 RMK A01 T02301007  RH  021%=      5-min Rain = 0
KPD2 102215Z 26005KT 23/M01 A2947 RMK A01 T02301007  RH  021%=      5-min Rain = 0
KPD2 102216Z 24010G16KT 23/M01 A2947 RMK A01 T02301007  RH  021%=      5-min Rain = 0
KPD2 102217Z 25008KT 23/M01 A2947 RMK A01 T02301007  RH  021%=      5-min Rain = 0
KPD2 102218Z 26010G19KT 23/M01 A2947 RMK A01 T02301008  RH  021%=      5-min Rain = 0
KPD2 102219Z 26009G16KT 23/M01 A2947 RMK A01 T02291008  RH  021%=      5-min Rain = 0
KPD2 102220Z 24013G19KT 23/M01 A2947 RMK A01 T02291008  RH  021%=      5-min Rain = 0
KPD2 102221Z 25014KT 23/M01 A2947 RMK A01 T02281009  RH  021%=      5-min Rain = 0
KPD2 102222Z 26013G19KT 23/M01 A2947 RMK A01 T02281009  RH  021%=      5-min Rain = 0
KPD2 102223Z 26014G20KT 23/M01 A2947 RMK A01 T02271010  RH  021%=      5-min Rain = 0
KPD2 102224Z 22010G17KT 23/M01 A2947 RMK A01 T02261010  RH  021%=      5-min Rain = 0
KPD2 102225Z 25009KT 23/M01 A2947 RMK A01 T02261010  RH  021%=      5-min Rain = 0
KPD2 102226Z 24004G10KT 23/M01 A2947 RMK A01 T02261009  RH  021%=      5-min Rain = 0
KPD2 102227Z 23012G18KT 23/M01 A2947 RMK A01 T02261010  RH  021%=      5-min Rain = 0
KPD2 102228Z 25010G15KT 23/M01 A2947 RMK A01 T02261010  RH  021%=      5-min Rain = 0
KPD2 102229Z 24007G12KT 23/M01 A2947 RMK A01 T02261010  RH  021%=      5-min Rain = 0
KPD2 102230Z 23008KT 23/M01 A2947 RMK A01 T02261010  RH  021%=      5-min Rain = 0
KPD2 102231Z 25011G17KT 23/M01 A2947 RMK A01 T02251008  RH  021%=      5-min Rain = 0
KPD2 102232Z 27011G16KT 22/M01 A2947 RMK A01 T02241006  RH  022%=      5-min Rain = 0
KPD2 102233Z 29013KT 22/M00 A2947 RMK A01 T02231001  RH  023%=      5-min Rain = 0
KPD2 102234Z 28013KT 22/00 A2947 RMK A01 T02210003  RH  024%=      5-min Rain = 0
KPD2 102235Z 28010KT 22/01 A2947 RMK A01 T02190005  RH  024%=      5-min Rain = 0
KPD2 102236Z 27012G20KT 22/01 A2947 RMK A01 T02170007  RH  025%=      5-min Rain = 0
KPD2 102237Z 28011G17KT 22/01 A2947 RMK A01 T02160007  RH  025%=      5-min Rain = 0
KPD2 102238Z 30011G17KT 22/01 A2947 RMK A01 T02150007  RH  025%=      5-min Rain = 0
KPD2 102239Z 29011G17KT 22/01 A2947 RMK A01 T02150007  RH  025%=      5-min Rain = 0
KPD2 102240Z 29010G17KT 22/01 A2947 RMK A01 T02150008  RH  025%=      5-min Rain = 0
KPD2 102241Z 29008G13KT 21/01 A2947 RMK A01 T02140009  RH  026%=      5-min Rain = 0
KPD2 102242Z 26011G16KT 21/01 A2947 RMK A01 T02130009  RH  026%=      5-min Rain = 0
KPD2 102243Z 27011KT 21/01 A2947 RMK A01 T02130009  RH  026%=      5-min Rain = 0
KPD2 102244Z 27011G16KT 21/01 A2947 RMK A01 T02120009  RH  026%=      5-min Rain = 0
KPD2 102245Z 26009G17KT 21/01 A2947 RMK A01 T02110009  RH  026%=      5-min Rain = 0
KPD2 102246Z 27007KT 21/01 A2947 RMK A01 T02110010  RH  026%=      5-min Rain = 0
KPD2 102247Z 27010G15KT 21/01 A2947 RMK A01 T02110010  RH  026%=      5-min Rain = 0
KPD2 102248Z 29011G18KT 21/01 A2948 RMK A01 T02110010  RH  026%=      5-min Rain = 0
KPD2 102249Z 25010G17KT 21/01 A2948 RMK A01 T02090010  RH  027%=      5-min Rain = 0
KPD2 102250Z 27010G18KT 21/01 A2948 RMK A01 T02080010  RH  027%=      5-min Rain = 0
KPD2 102251Z 27014G19KT 21/01 A2948 RMK A01 T02080010  RH  027%=      5-min Rain = 0
KPD2 102252Z 26013G18KT 21/01 A2948 RMK A01 T02070011  RH  027%=      5-min Rain = 0
KPD2 102253Z 27007KT 21/01 A2948 RMK A01 T02060010  RH  027%=      5-min Rain = 0
KPD2 102254Z 27009KT 21/01 A2948 RMK A01 T02060011  RH  027%=      5-min Rain = 0
KPD2 102255Z 29012G19KT 21/01 A2948 RMK A01 T02050011  RH  027%=      5-min Rain = 0
KPD2 102256Z 30010G15KT 21/01 A2948 RMK A01 T02050011  RH  028%=      5-min Rain = 0
KPD2 102257Z 29010KT 20/01 A2948 RMK A01 T02040011  RH  028%=      5-min Rain = 0
KPD2 102258Z 28014G21KT 20/01 A2948 RMK A01 T02040011  RH  028%=      5-min Rain = 0
KPD2 102259Z 27007KT 20/01 A2949 RMK A01 T02040012  RH  028%=      5-min Rain = 0
KPD2 102300Z 27010KT 20/01 A2949 RMK A01 T02030011  RH  028%=      5-min Rain = 0
KPD2 102301Z 27008KT 20/01 A2949 RMK A01 T02030011  RH  028%=      5-min Rain = 0
KPD2 102302Z 25011KT 20/01 A2949 RMK A01 T02030011  RH  028%=      5-min Rain = 0
KPD2 102303Z 25006KT 20/01 A2949 RMK A01 T02020011  RH  028%=      5-min Rain = 0
KPD2 102304Z 28006KT 20/01 A2949 RMK A01 T02020011  RH  028%=      5-min Rain = 0
KPD2 102305Z 27008KT 20/01 A2949 RMK A01 T02020012  RH  028%=      5-min Rain = 0
KPD2 102306Z 27008G14KT 20/01 A2949 RMK A01 T02010011  RH  028%=      5-min Rain = 0
KPD2 102307Z 28007G12KT 20/01 A2949 RMK A01 T02010011  RH  028%=      5-min Rain = 0
KPD2 102308Z 28013G20KT 20/01 A2949 RMK A01 T02000011  RH  028%=      5-min Rain = 0
KPD2 102309Z 27008G13KT 20/01 A2949 RMK A01 T02000011  RH  028%=      5-min Rain = 0
KPD2 102310Z 25005KT 20/01 A295 RMK A01 T01990011  RH  029%=      5-min Rain = 0
KPD2 102311Z 26007G13KT 20/01 A295 RMK A01 T01990011  RH  029%=      5-min Rain = 0
KPD2 102312Z 27008KT 20/01 A295 RMK A01 T01980011  RH  029%=      5-min Rain = 0
KPD2 102313Z 28008KT 20/01 A295 RMK A01 T01970011  RH  029%=      5-min Rain = 0
KPD2 102314Z 27008KT 20/01 A295 RMK A01 T01970011  RH  029%=      5-min Rain = 0
KPD2 102315Z 22005KT 20/01 A295 RMK A01 T01960011  RH  029%=      5-min Rain = 0
KPD2 102316Z 22005KT 20/01 A295 RMK A01 T01950011  RH  029%=      5-min Rain = 0
KPD2 102317Z 25004KT 19/01 A295 RMK A01 T01940011  RH  029%=      5-min Rain = 0
KPD2 102318Z 23010KT 19/01 A295 RMK A01 T01930011  RH  029%=      5-min Rain = 0
KPD2 102319Z 23011G16KT 19/01 A295 RMK A01 T01920011  RH  030%=      5-min Rain = 0
KPD2 102320Z 26012G21KT 19/01 A295 RMK A01 T01920012  RH  030%=      5-min Rain = 0
KPD2 102321Z 25011G16KT 19/01 A295 RMK A01 T01910012  RH  030%=      5-min Rain = 0
KPD2 102322Z 24011G22KT 19/01 A295 RMK A01 T01910012  RH  030%=      5-min Rain = 0
KPD2 102323Z 22007KT 19/01 A295 RMK A01 T01900012  RH  030%=      5-min Rain = 0
KPD2 102324Z 25009G16KT 19/01 A295 RMK A01 T01900012  RH  030%=      5-min Rain = 0
KPD2 102325Z 24010G15KT 19/01 A295 RMK A01 T01890012  RH  031%=      5-min Rain = 0
KPD2 102326Z 24011KT 19/01 A295 RMK A01 T01880012  RH  031%=      5-min Rain = 0
KPD2 102327Z 23010G16KT 19/01 A295 RMK A01 T01880013  RH  031%=      5-min Rain = 0
KPD2 102328Z 23009G16KT 19/01 A295 RMK A01 T01880013  RH  031%=      5-min Rain = 0
KPD2 102329Z 25007G14KT 19/01 A295 RMK A01 T01870013  RH  031%=      5-min Rain = 0
KPD2 102330Z 21007G14KT 19/01 A295 RMK A01 T01870012  RH  031%=      5-min Rain = 0
KPD2 102331Z 24007KT 19/01 A295 RMK A01 T01860012  RH  031%=      5-min Rain = 0
KPD2 102332Z 26003KT 19/01 A2949 RMK A01 T01850012  RH  031%=      5-min Rain = 0
KPD2 102333Z 25004KT 19/01 A2949 RMK A01 T01850012  RH  031%=      5-min Rain = 0
KPD2 102334Z 25004KT 18/01 A2949 RMK A01 T01840012  RH  031%=      5-min Rain = 0
KPD2 102335Z 23007KT 18/01 A2949 RMK A01 T01830012  RH  032%=      5-min Rain = 0
KPD2 102336Z 27004KT 18/01 A2949 RMK A01 T01830012  RH  032%=      5-min Rain = 0
KPD2 102337Z 28003KT 18/01 A2949 RMK A01 T01830012  RH  032%=      5-min Rain = 0
KPD2 102338Z 25004G10KT 18/01 A2949 RMK A01 T01820011  RH  032%=      5-min Rain = 0
KPD2 102339Z 28006KT 18/01 A2949 RMK A01 T01810011  RH  032%=      5-min Rain = 0
KPD2 102340Z 28006KT 18/01 A2949 RMK A01 T01800011  RH  032%=      5-min Rain = 0
KPD2 102341Z 28006KT 18/01 A295 RMK A01 T01790011  RH  032%=      5-min Rain = 0
KPD2 102342Z 27007KT 18/01 A295 RMK A01 T01790011  RH  032%=      5-min Rain = 0
KPD2 102343Z 28005G10KT 18/01 A295 RMK A01 T01780012  RH  033%=      5-min Rain = 0
KPD2 102344Z 26005KT 18/01 A295 RMK A01 T01780011  RH  033%=      5-min Rain = 0
KPD2 102345Z 27005KT 18/01 A295 RMK A01 T01770011  RH  033%=      5-min Rain = 0
KPD2 102346Z 25006KT 18/01 A295 RMK A01 T01770011  RH  033%=      5-min Rain = 0
KPD2 102347Z 23008KT 18/01 A295 RMK A01 T01760011  RH  033%=      5-min Rain = 0
KPD2 102348Z 26004KT 18/01 A295 RMK A01 T01770012  RH  033%=      5-min Rain = 0
KPD2 102349Z 21004KT 18/01 A295 RMK A01 T01760011  RH  033%=      5-min Rain = 0
KPD2 102350Z 24011G17KT 18/01 A2951 RMK A01 T01760011  RH  033%=      5-min Rain = 0
KPD2 102351Z 23010KT 18/01 A2951 RMK A01 T01760011  RH  033%=      5-min Rain = 0
KPD2 102352Z 23006KT 18/01 A2951 RMK A01 T01760011  RH  033%=      5-min Rain = 0
KPD2 102353Z 22008G14KT 18/01 A2951 RMK A01 T01760011  RH  033%=      5-min Rain = 0
KPD2 102354Z 23013G18KT 18/01 A2951 RMK A01 T01750010  RH  033%=      5-min Rain = 0
KPD2 102355Z 23007G14KT 18/01 A2951 RMK A01 T01750010  RH  033%=      5-min Rain = 0
KPD2 102356Z 23010KT 18/01 A2951 RMK A01 T01750010  RH  033%=      5-min Rain = 0
KPD2 102357Z 24006KT 17/01 A2951 RMK A01 T01740010  RH  033%=      5-min Rain = 0
KPD2 102358Z 22004KT 17/01 A2951 RMK A01 T01740010  RH  033%=      5-min Rain = 0
KPD2 102359Z 25005KT 17/01 A2951 RMK A01 T01730009  RH  033%=      5-min Rain = 0
KPD2 110000Z 24008KT 17/01 A2951 RMK A01 T01720009  RH  033%=      5-min Rain = 0
KPD2 110001Z 21007KT 17/01 A2951 RMK A01 T01720009  RH  033%=      5-min Rain = 0
KPD2 110002Z 23010G16KT 17/01 A2951 RMK A01 T01710009  RH  033%=      5-min Rain = 0
KPD2 110003Z 24008KT 17/01 A2951 RMK A01 T01710009  RH  033%=      5-min Rain = 0
KPD2 110004Z 23012KT 17/01 A2951 RMK A01 T01710009  RH  033%=      5-min Rain = 0
KPD2 110005Z 25008KT 17/01 A2951 RMK A01 T01710008  RH  033%=      5-min Rain = 0
KPD2 110006Z 22010KT 17/01 A295 RMK A01 T01710008  RH  033%=      5-min Rain = 0
KPD2 110007Z 25004G10KT 17/01 A2951 RMK A01 T01710008  RH  033%=      5-min Rain = 0
KPD2 110008Z 23007KT 17/01 A2951 RMK A01 T01700008  RH  033%=      5-min Rain = 0
KPD2 110009Z 24009G14KT 17/01 A2951 RMK A01 T01700007  RH  033%=      5-min Rain = 0
KPD2 110010Z 22007KT 17/01 A295 RMK A01 T01690007  RH  033%=      5-min Rain = 0
KPD2 110011Z 22005KT 17/01 A295 RMK A01 T01690007  RH  033%=      5-min Rain = 0
KPD2 110012Z 25003KT 17/01 A295 RMK A01 T01680007  RH  033%=      5-min Rain = 0
KPD2 110013Z 23006G12KT 17/01 A295 RMK A01 T01680007  RH  034%=      5-min Rain = 0
KPD2 110014Z 24009KT 17/01 A2951 RMK A01 T01680006  RH  034%=      5-min Rain = 0
KPD2 110015Z 23010KT 17/01 A2951 RMK A01 T01680007  RH  034%=      5-min Rain = 0
KPD2 110016Z 25008KT 17/01 A2951 RMK A01 T01670006  RH  034%=      5-min Rain = 0
KPD2 110017Z 24009KT 17/01 A2951 RMK A01 T01670006  RH  034%=      5-min Rain = 0
KPD2 110018Z 23008G14KT 17/01 A2951 RMK A01 T01670006  RH  034%=      5-min Rain = 0
KPD2 110019Z 24010G16KT 17/01 A2951 RMK A01 T01670006  RH  034%=      5-min Rain = 0
KPD2 110020Z 25009KT 17/01 A2951 RMK A01 T01660005  RH  034%=      5-min Rain = 0
KPD2 110021Z 22010G17KT 17/01 A2951 RMK A01 T01660005  RH  034%=      5-min Rain = 0
KPD2 110022Z 25008G15KT 17/01 A2951 RMK A01 T01660005  RH  034%=      5-min Rain = 0
KPD2 110023Z 25008G14KT 17/01 A2951 RMK A01 T01660005  RH  034%=      5-min Rain = 0
KPD2 110024Z 23008G13KT 17/01 A2951 RMK A01 T01650005  RH  034%=      5-min Rain = 0
KPD2 110025Z 25011G17KT 17/01 A2951 RMK A01 T01650005  RH  034%=      5-min Rain = 0
KPD2 110026Z 24005KT 17/01 A2951 RMK A01 T01650005  RH  034%=      5-min Rain = 0
KPD2 110027Z 22008G13KT 16/01 A2951 RMK A01 T01640005  RH  034%=      5-min Rain = 0
KPD2 110028Z 23009G14KT 16/01 A2951 RMK A01 T01640005  RH  034%=      5-min Rain = 0
KPD2 110029Z 23005KT 16/01 A2951 RMK A01 T01640005  RH  034%=      5-min Rain = 0
KPD2 110030Z 24010KT 16/01 A2951 RMK A01 T01630005  RH  034%=      5-min Rain = 0
KPD2 110031Z 25009KT 16/01 A2951 RMK A01 T01630005  RH  034%=      5-min Rain = 0
KPD2 110032Z 24004G9KT 16/01 A2951 RMK A01 T01620005  RH  034%=      5-min Rain = 0
KPD2 110033Z 22010G16KT 16/01 A2951 RMK A01 T01620005  RH  034%=      5-min Rain = 0
KPD2 110034Z 23010KT 16/01 A2951 RMK A01 T01620005  RH  034%=      5-min Rain = 0
KPD2 110035Z 23009G14KT 16/01 A2951 RMK A01 T01620005  RH  034%=      5-min Rain = 0
KPD2 110036Z 24006KT 16/01 A2951 RMK A01 T01620005  RH  035%=      5-min Rain = 0
KPD2 110037Z 23010KT 16/01 A2951 RMK A01 T01610005  RH  035%=      5-min Rain = 0
KPD2 110038Z 26011G17KT 16/01 A2951 RMK A01 T01610005  RH  035%=      5-min Rain = 0
KPD2 110039Z 24006G14KT 16/01 A2951 RMK A01 T01610005  RH  035%=      5-min Rain = 0
KPD2 110040Z 23009G14KT 16/01 A2951 RMK A01 T01610005  RH  035%=      5-min Rain = 0
KPD2 110041Z 24008G13KT 16/01 A2951 RMK A01 T01600005  RH  035%=      5-min Rain = 0
KPD2 110042Z 23010KT 16/01 A2951 RMK A01 T01600005  RH  035%=      5-min Rain = 0
KPD2 110043Z 26009KT 16/01 A2951 RMK A01 T01600005  RH  035%=      5-min Rain = 0
KPD2 110044Z 24011G18KT 16/01 A2951 RMK A01 T01600006  RH  035%=      5-min Rain = 0
KPD2 110045Z 23008G13KT 16/01 A2952 RMK A01 T01590005  RH  035%=      5-min Rain = 0
KPD2 110046Z 24007G12KT 16/01 A2952 RMK A01 T01590005  RH  035%=      5-min Rain = 0
KPD2 110047Z 25011G20KT 16/01 A2952 RMK A01 T01600006  RH  035%=      5-min Rain = 0
KPD2 110048Z 23010G17KT 16/01 A2952 RMK A01 T01590005  RH  035%=      5-min Rain = 0
KPD2 110049Z 23007KT 16/01 A2952 RMK A01 T01600006  RH  035%=      5-min Rain = 0
KPD2 110050Z 24008G13KT 16/01 A2952 RMK A01 T01590005  RH  035%=      5-min Rain = 0
KPD2 110051Z 24012KT 16/01 A2952 RMK A01 T01590005  RH  035%=      5-min Rain = 0
KPD2 110052Z 24008G15KT 16/01 A2952 RMK A01 T01590006  RH  035%=      5-min Rain = 0
KPD2 110053Z 23009KT 16/01 A2952 RMK A01 T01590006  RH  035%=      5-min Rain = 0
KPD2 110054Z 23009G15KT 16/01 A2952 RMK A01 T01590006  RH  035%=      5-min Rain = 0
KPD2 110055Z 25008G16KT 16/01 A2952 RMK A01 T01580005  RH  035%=      5-min Rain = 0
KPD2 110056Z 25010G15KT 16/00 A2952 RMK A01 T01580004  RH  035%=      5-min Rain = 0
KPD2 110057Z 24009G15KT 16/00 A2952 RMK A01 T01590004  RH  035%=      5-min Rain = 0
KPD2 110058Z 26009KT 16/00 A2952 RMK A01 T01580003  RH  035%=      5-min Rain = 0
KPD2 110059Z 23007KT 16/00 A2952 RMK A01 T01580003  RH  035%=      5-min Rain = 0
KPD2 110100Z 23010G18KT 16/00 A2952 RMK A01 T01580003  RH  035%=      5-min Rain = 0
KPD2 110101Z 22005KT 16/00 A2951 RMK A01 T01580002  RH  035%=      5-min Rain = 0
KPD2 110102Z 30003KT 16/00 A2951 RMK A01 T01570002  RH  035%=      5-min Rain = 0
KPD2 110103Z 24004G9KT 16/00 A2951 RMK A01 T01570002  RH  035%=      5-min Rain = 0
KPD2 110104Z 26006G11KT 16/00 A2951 RMK A01 T01560002  RH  035%=      5-min Rain = 0
KPD2 110105Z 24010KT 16/00 A2951 RMK A01 T01560002  RH  035%=      5-min Rain = 0
KPD2 110106Z 22007KT 16/00 A2951 RMK A01 T01560002  RH  035%=      5-min Rain = 0
KPD2 110107Z 24007KT 16/00 A2951 RMK A01 T01550001  RH  035%=      5-min Rain = 0
KPD2 110108Z 24005KT 16/00 A2951 RMK A01 T01550002  RH  035%=      5-min Rain = 0
KPD2 110109Z 30005G10KT 16/00 A2951 RMK A01 T01550001  RH  035%=      5-min Rain = 0
KPD2 110110Z 26005KT 15/00 A2951 RMK A01 T01540000  RH  035%=      5-min Rain = 0
KPD2 110111Z 31009G16KT 15/00 A295 RMK A01 T01530000  RH  035%=      5-min Rain = 0
KPD2 110112Z 26005KT 15/M00 A295 RMK A01 T01521001  RH  035%=      5-min Rain = 0
KPD2 110113Z 29006G11KT 15/00 A295 RMK A01 T015200-0  RH  035%=      5-min Rain = 0
KPD2 110114Z 27006KT 15/00 A295 RMK A01 T015100-0  RH  035%=      5-min Rain = 0
KPD2 110115Z 28004G9KT 15/M00 A295 RMK A01 T01501001  RH  036%=      5-min Rain = 0
KPD2 110116Z 28005KT 15/M00 A295 RMK A01 T01501001  RH  036%=      5-min Rain = 0
KPD2 110117Z 29002KT 15/M00 A295 RMK A01 T01491001  RH  036%=      5-min Rain = 0
KPD2 110118Z 28004G9KT 15/M00 A295 RMK A01 T01481002  RH  036%=      5-min Rain = 0
KPD2 110119Z 27008KT 15/M00 A295 RMK A01 T01471002  RH  036%=      5-min Rain = 0
KPD2 110120Z 30007KT 15/M00 A295 RMK A01 T01461002  RH  036%=      5-min Rain = 0
KPD2 110121Z 28007KT 15/M00 A295 RMK A01 T01461002  RH  036%=      5-min Rain = 0
KPD2 110122Z 26008G13KT 15/M00 A295 RMK A01 T01451003  RH  036%=      5-min Rain = 0
KPD2 110123Z 28007KT 15/M00 A295 RMK A01 T01451002  RH  036%=      5-min Rain = 0
KPD2 110124Z 29008G13KT 15/M00 A295 RMK A01 T01451002  RH  036%=      5-min Rain = 0
KPD2 110125Z 28009KT 14/M00 A2949 RMK A01 T01441003  RH  036%=      5-min Rain = 0
KPD2 110126Z 29007KT 14/M00 A2949 RMK A01 T01441002  RH  037%=      5-min Rain = 0
KPD2 110127Z 28007KT 14/M00 A2949 RMK A01 T01441003  RH  037%=      5-min Rain = 0
KPD2 110128Z 29007G12KT 14/M00 A2949 RMK A01 T01441003  RH  037%=      5-min Rain = 0
KPD2 110129Z 27008KT 14/M00 A2949 RMK A01 T01441003  RH  036%=      5-min Rain = 0
KPD2 110130Z 27007KT 14/M00 A2949 RMK A01 T01431003  RH  037%=      5-min Rain = 0
KPD2 110131Z 28008KT 14/M00 A2949 RMK A01 T01431004  RH  037%=      5-min Rain = 0
KPD2 110132Z 28010G16KT 14/M00 A2949 RMK A01 T01421004  RH  037%=      5-min Rain = 0
KPD2 110133Z 28008KT 14/M00 A2949 RMK A01 T01431004  RH  037%=      5-min Rain = 0
KPD2 110134Z 28009KT 14/M00 A2948 RMK A01 T01431004  RH  037%=      5-min Rain = 0
KPD2 110135Z 29011G17KT 14/M00 A2948 RMK A01 T01431004  RH  037%=      5-min Rain = 0
KPD2 110136Z 29012G18KT 14/M00 A2948 RMK A01 T01431004  RH  036%=      5-min Rain = 0
KPD2 110137Z 28013KT 14/M01 A2948 RMK A01 T01421005  RH  036%=      5-min Rain = 0
KPD2 110138Z 29008G15KT 14/M01 A2948 RMK A01 T01421005  RH  036%=      5-min Rain = 0
KPD2 110139Z 27013G18KT 14/M01 A2947 RMK A01 T01421005  RH  036%=      5-min Rain = 0
KPD2 110140Z 29010KT 14/M01 A2947 RMK A01 T01421005  RH  036%=      5-min Rain = 0
KPD2 110141Z 28008G13KT 14/M01 A2947 RMK A01 T01421005  RH  036%=      5-min Rain = 0
KPD2 110142Z 30008KT 14/M01 A2947 RMK A01 T01421005  RH  036%=      5-min Rain = 0
KPD2 110143Z 31009KT 14/M01 A2947 RMK A01 T01401006  RH  037%=      5-min Rain = 0
KPD2 110144Z 30007KT 14/M01 A2947 RMK A01 T01391007  RH  037%=      5-min Rain = 0
KPD2 110145Z 30009G14KT 14/M01 A2947 RMK A01 T01381006  RH  037%=      5-min Rain = 0
KPD2 110146Z 30013G22KT 14/M01 A2947 RMK A01 T01381006  RH  037%=      5-min Rain = 0
KPD2 110147Z 31008KT 14/M01 A2947 RMK A01 T01381006  RH  037%=      5-min Rain = 0
KPD2 110148Z 31008KT 14/M01 A2947 RMK A01 T01371006  RH  037%=      5-min Rain = 0
KPD2 110149Z 29009KT 14/M01 A2947 RMK A01 T01371006  RH  037%=      5-min Rain = 0
KPD2 110150Z 28007KT 14/M01 A2947 RMK A01 T01361006  RH  038%=      5-min Rain = 0
KPD2 110151Z 31005KT 14/M01 A2947 RMK A01 T01361006  RH  038%=      5-min Rain = 0
KPD2 110152Z 30005KT 14/M01 A2946 RMK A01 T01351007  RH  038%=      5-min Rain = 0
KPD2 110153Z 29005KT 13/M01 A2946 RMK A01 T01341006  RH  038%=      5-min Rain = 0
KPD2 110154Z 27004KT 13/M01 A2946 RMK A01 T01331006  RH  038%=      5-min Rain = 0
KPD2 110155Z 29006KT 13/M01 A2947 RMK A01 T01321006  RH  038%=      5-min Rain = 0
KPD2 110156Z 28010G15KT 13/M01 A2947 RMK A01 T01321005  RH  039%=      5-min Rain = 0
KPD2 110157Z 28007KT 13/M01 A2947 RMK A01 T01331005  RH  039%=      5-min Rain = 0
KPD2 110158Z 28006KT 13/M01 A2947 RMK A01 T01331005  RH  038%=      5-min Rain = 0
KPD2 110159Z 27006G12KT 13/M01 A2947 RMK A01 T01341005  RH  038%=      5-min Rain = 0
KPD2 110200Z 27007G12KT 13/M01 A2948 RMK A01 T01341005  RH  038%=      5-min Rain = 0
KPD2 110201Z 26010KT 13/M01 A2948 RMK A01 T01341005  RH  038%=      5-min Rain = 0
KPD2 110202Z 28006G13KT 14/M00 A2948 RMK A01 T01351004  RH  038%=      5-min Rain = 0
KPD2 110203Z 27010G15KT 14/M01 A2948 RMK A01 T01351005  RH  038%=      5-min Rain = 0
KPD2 110204Z 27008G13KT 14/M00 A2948 RMK A01 T01351004  RH  038%=      5-min Rain = 0
KPD2 110205Z 26010KT 14/M01 A2948 RMK A01 T01351005  RH  038%=      5-min Rain = 0
KPD2 110206Z 27007KT 14/M00 A2948 RMK A01 T01351004  RH  038%=      5-min Rain = 0
KPD2 110207Z 28006G11KT 14/M01 A2948 RMK A01 T01351005  RH  038%=      5-min Rain = 0
KPD2 110208Z 26010KT 14/M00 A2948 RMK A01 T01351004  RH  038%=      5-min Rain = 0
KPD2 110209Z 27009KT 14/M00 A2948 RMK A01 T01351004  RH  038%=      5-min Rain = 0
KPD2 110210Z 28007KT 14/M00 A2948 RMK A01 T01351004  RH  038%=      5-min Rain = 0
KPD2 110211Z 28009G14KT 14/M01 A2948 RMK A01 T01351005  RH  038%=      5-min Rain = 0
KPD2 110212Z 26007KT 14/M01 A2948 RMK A01 T01351005  RH  038%=      5-min Rain = 0
KPD2 110213Z 28007KT 14/M01 A2948 RMK A01 T01351005  RH  038%=      5-min Rain = 0
KPD2 110214Z 26008KT 13/M01 A2948 RMK A01 T01341005  RH  038%=      5-min Rain = 0
KPD2 110215Z 26006KT 14/M01 A2948 RMK A01 T01351005  RH  038%=      5-min Rain = 0
KPD2 110216Z 29004KT 14/M01 A2948 RMK A01 T01351005  RH  038%=      5-min Rain = 0
KPD2 110217Z 27007KT 13/M01 A2948 RMK A01 T01341005  RH  038%=      5-min Rain = 0
KPD2 110218Z 25004KT 13/M01 A2948 RMK A01 T01331005  RH  038%=      5-min Rain = 0
KPD2 110219Z 22004G11KT 13/M01 A2948 RMK A01 T01331005  RH  039%=      5-min Rain = 0
KPD2 110220Z 25004G9KT 13/M01 A2948 RMK A01 T01331005  RH  039%=      5-min Rain = 0
KPD2 110221Z 24002KT 13/M01 A2948 RMK A01 T01321005  RH  039%=      5-min Rain = 0
KPD2 110222Z 23004KT 13/M01 A2948 RMK A01 T01321005  RH  039%=      5-min Rain = 0
KPD2 110223Z 24007KT 13/M01 A2948 RMK A01 T01321005  RH  039%=      5-min Rain = 0
KPD2 110224Z 24005KT 13/M01 A2948 RMK A01 T01321005  RH  039%=      5-min Rain = 0
KPD2 110225Z 26008KT 13/M01 A2948 RMK A01 T01321005  RH  039%=      5-min Rain = 0
KPD2 110226Z 24005KT 13/M01 A2948 RMK A01 T01311005  RH  039%=      5-min Rain = 0
KPD2 110227Z 24006KT 13/M00 A2948 RMK A01 T01321004  RH  039%=      5-min Rain = 0
KPD2 110228Z 25007KT 13/M01 A2949 RMK A01 T01311005  RH  039%=      5-min Rain = 0
KPD2 110229Z 22006KT 13/M01 A2948 RMK A01 T01311005  RH  039%=      5-min Rain = 0
KPD2 110230Z 24006KT 13/M01 A2948 RMK A01 T01311005  RH  039%=      5-min Rain = 0
KPD2 110231Z 22004KT 13/M01 A2948 RMK A01 T01311005  RH  039%=      5-min Rain = 0
KPD2 110232Z 22004G11KT 13/M01 A2948 RMK A01 T01301005  RH  039%=      5-min Rain = 0
KPD2 110233Z 21006KT 13/M01 A2948 RMK A01 T01291005  RH  039%=      5-min Rain = 0
KPD2 110234Z 22003KT 13/M01 A2948 RMK A01 T01291005  RH  040%=      5-min Rain = 0
KPD2 110235Z 23005KT 13/M01 A2948 RMK A01 T01291005  RH  040%=      5-min Rain = 0
KPD2 110236Z 22010G15KT 13/M01 A2948 RMK A01 T01291005  RH  040%=      5-min Rain = 0
KPD2 110237Z 22003G8KT 13/M01 A2948 RMK A01 T01291005  RH  040%=      5-min Rain = 0
KPD2 110238Z 23006KT 13/M01 A2948 RMK A01 T01291005  RH  039%=      5-min Rain = 0
KPD2 110239Z 25008KT 13/M01 A2948 RMK A01 T01291005  RH  039%=      5-min Rain = 0
KPD2 110240Z 24005KT 13/M01 A2948 RMK A01 T01291006  RH  039%=      5-min Rain = 0
KPD2 110241Z 23006KT 13/M01 A2948 RMK A01 T01301005  RH  039%=      5-min Rain = 0
KPD2 110242Z 26007KT 13/M01 A2948 RMK A01 T01291005  RH  039%=      5-min Rain = 0
KPD2 110243Z 20007G12KT 13/M01 A2948 RMK A01 T01291005  RH  039%=      5-min Rain = 0
KPD2 110244Z 20004KT 13/M01 A2948 RMK A01 T01291006  RH  039%=      5-min Rain = 0
KPD2 110245Z 19002KT 13/M01 A2948 RMK A01 T01281006  RH  040%=      5-min Rain = 0
KPD2 110246Z 18003KT 13/M01 A2948 RMK A01 T01271006  RH  040%=      5-min Rain = 0
KPD2 110247Z 25002KT 13/M01 A2948 RMK A01 T01271006  RH  040%=      5-min Rain = 0
KPD2 110248Z 16002KT 13/M01 A2948 RMK A01 T01271006  RH  040%=      5-min Rain = 0
KPD2 110249Z 11001KT 13/M01 A2948 RMK A01 T01271006  RH  040%=      5-min Rain = 0
KPD2 110250Z 20003KT 13/M01 A2948 RMK A01 T01261006  RH  040%=      5-min Rain = 0
KPD2 110251Z 26005KT 13/M01 A2948 RMK A01 T01261006  RH  040%=      5-min Rain = 0
KPD2 110252Z 23004KT 13/M01 A2948 RMK A01 T01261007  RH  040%=      5-min Rain = 0
KPD2 110253Z 19004KT 13/M01 A2948 RMK A01 T01261006  RH  040%=      5-min Rain = 0
KPD2 110254Z 16003KT 13/M01 A2948 RMK A01 T01261007  RH  040%=      5-min Rain = 0
KPD2 110255Z 18003KT 13/M01 A2948 RMK A01 T01251007  RH  040%=      5-min Rain = 0
KPD2 110256Z 18004G9KT 13/M01 A2948 RMK A01 T01261007  RH  040%=      5-min Rain = 0
KPD2 110257Z 16004KT 13/M01 A2948 RMK A01 T01251007  RH  040%=      5-min Rain = 0
KPD2 110258Z 19005KT 13/M01 A2948 RMK A01 T01251007  RH  040%=      5-min Rain = 0
KPD2 110259Z 19005KT 13/M01 A2948 RMK A01 T01251007  RH  040%=      5-min Rain = 0
KPD2 110300Z 18008KT 13/M01 A2948 RMK A01 T01251007  RH  040%=      5-min Rain = 0
KPD2 110301Z 18007KT 13/M01 A2948 RMK A01 T01251007  RH  040%=      5-min Rain = 0
KPD2 110302Z 21006KT 13/M01 A2948 RMK A01 T01251007  RH  040%=      5-min Rain = 0
KPD2 110303Z 22005G10KT 13/M01 A2948 RMK A01 T01251007  RH  040%=      5-min Rain = 0
KPD2 110304Z 22006KT 13/M01 A2948 RMK A01 T01251007  RH  040%=      5-min Rain = 0
KPD2 110305Z 16004KT 13/M01 A2948 RMK A01 T01251008  RH  040%=      5-min Rain = 0
KPD2 110306Z 18007KT 12/M01 A2948 RMK A01 T01241008  RH  040%=      5-min Rain = 0
KPD2 110307Z 17003G8KT 12/M01 A2948 RMK A01 T01241008  RH  040%=      5-min Rain = 0
KPD2 110308Z 10000KT 12/M01 A2948 RMK A01 T01241008  RH  040%=      5-min Rain = 0
KPD2 110309Z 06000KT 12/M01 A2948 RMK A01 T01241008  RH  040%=      5-min Rain = 0
KPD2 110310Z 27000KT 12/M01 A2948 RMK A01 T01231009  RH  040%=      5-min Rain = 0
KPD2 110311Z 13002KT 12/M01 A2948 RMK A01 T01221009  RH  040%=      5-min Rain = 0
KPD2 110312Z 14003KT 12/M01 A2948 RMK A01 T01211009  RH  041%=      5-min Rain = 0
KPD2 110313Z 19004KT 12/M01 A2948 RMK A01 T01211009  RH  041%=      5-min Rain = 0
KPD2 110314Z 21004KT 12/M01 A2948 RMK A01 T01211009  RH  041%=      5-min Rain = 0
KPD2 110315Z 22006KT 12/M01 A2948 RMK A01 T01221009  RH  040%=      5-min Rain = 0
KPD2 110316Z 22006KT 12/M01 A2948 RMK A01 T01221009  RH  040%=      5-min Rain = 0
KPD2 110317Z 20005KT 12/M01 A2948 RMK A01 T01221008  RH  040%=      5-min Rain = 0
KPD2 110318Z 24006G11KT 12/M01 A2948 RMK A01 T01231008  RH  040%=      5-min Rain = 0
KPD2 110319Z 23005KT 12/M01 A2948 RMK A01 T01221009  RH  040%=      5-min Rain = 0
KPD2 110320Z 21003KT 12/M01 A2948 RMK A01 T01221008  RH  041%=      5-min Rain = 0
KPD2 110321Z 17003KT 12/M01 A2948 RMK A01 T01211009  RH  041%=      5-min Rain = 0
KPD2 110322Z 21002KT 12/M01 A2948 RMK A01 T01201009  RH  041%=      5-min Rain = 0
KPD2 110323Z 17005G10KT 12/M01 A2948 RMK A01 T01201008  RH  041%=      5-min Rain = 0
KPD2 110324Z 21006KT 12/M01 A2948 RMK A01 T01201008  RH  041%=      5-min Rain = 0
KPD2 110325Z 18008G13KT 12/M01 A2948 RMK A01 T01211008  RH  041%=      5-min Rain = 0
KPD2 110326Z 19005KT 12/M01 A2948 RMK A01 T01201008  RH  041%=      5-min Rain = 0
KPD2 110327Z 18007G12KT 12/M01 A2948 RMK A01 T01191007  RH  042%=      5-min Rain = 0
KPD2 110328Z 22009G14KT 12/M01 A2948 RMK A01 T01191007  RH  042%=      5-min Rain = 0
KPD2 110329Z 18007KT 12/M01 A2948 RMK A01 T01191006  RH  042%=      5-min Rain = 0
KPD2 110330Z 19009G14KT 12/M01 A2948 RMK A01 T01191006  RH  042%=      5-min Rain = 0
KPD2 110331Z 18008KT 12/M01 A2948 RMK A01 T01181006  RH  042%=      5-min Rain = 0
KPD2 110332Z 16007G13KT 12/M01 A2948 RMK A01 T01181006  RH  042%=      5-min Rain = 0
KPD2 110333Z 19009KT 12/M01 A2948 RMK A01 T01181006  RH  042%=      5-min Rain = 0
KPD2 110334Z 18010KT 12/M01 A2948 RMK A01 T01171005  RH  043%=      5-min Rain = 0
KPD2 110335Z 18009KT 12/M01 A2948 RMK A01 T01171005  RH  043%=      5-min Rain = 0
KPD2 110336Z 18009KT 12/M01 A2948 RMK A01 T01171005  RH  043%=      5-min Rain = 0
KPD2 110337Z 18005KT 12/M01 A2948 RMK A01 T01171005  RH  043%=      5-min Rain = 0
KPD2 110338Z 19006KT 12/M01 A2948 RMK A01 T01161005  RH  043%=      5-min Rain = 0
KPD2 110339Z 18005KT 12/M01 A2948 RMK A01 T01161005  RH  043%=      5-min Rain = 0
KPD2 110340Z 19007KT 12/M01 A2948 RMK A01 T01151005  RH  043%=      5-min Rain = 0
KPD2 110341Z 20010G15KT 11/M01 A2948 RMK A01 T01141005  RH  044%=      5-min Rain = 0
KPD2 110342Z 18011KT 11/M01 A2948 RMK A01 T01141005  RH  044%=      5-min Rain = 0
KPD2 110343Z 16007KT 11/M00 A2948 RMK A01 T01141004  RH  044%=      5-min Rain = 0
KPD2 110344Z 17005KT 12/M00 A2948 RMK A01 T01151004  RH  044%=      5-min Rain = 0
KPD2 110345Z 23006KT 12/M00 A2948 RMK A01 T01151004  RH  044%=      5-min Rain = 0
KPD2 110346Z 19008G15KT 11/M00 A2948 RMK A01 T01141004  RH  044%=      5-min Rain = 0
KPD2 110347Z 21007KT 11/M00 A2948 RMK A01 T01131004  RH  044%=      5-min Rain = 0
KPD2 110348Z 19008KT 11/M00 A2948 RMK A01 T01141004  RH  044%=      5-min Rain = 0
KPD2 110349Z 21006KT 11/M00 A2948 RMK A01 T01141004  RH  044%=      5-min Rain = 0
KPD2 110350Z 17009KT 11/M00 A2948 RMK A01 T01131004  RH  044%=      5-min Rain = 0
KPD2 110351Z 18007KT 11/M00 A2948 RMK A01 T01131004  RH  044%=      5-min Rain = 0
KPD2 110352Z 16007KT 11/M00 A2948 RMK A01 T01141004  RH  044%=      5-min Rain = 0
KPD2 110353Z 19006KT 11/M00 A2948 RMK A01 T01141004  RH  044%=      5-min Rain = 0
KPD2 110354Z 14005KT 11/M00 A2948 RMK A01 T01141004  RH  044%=      5-min Rain = 0
KPD2 110355Z 18008G14KT 11/M01 A2948 RMK A01 T01131005  RH  044%=      5-min Rain = 0
KPD2 110356Z 16004KT 11/M00 A2948 RMK A01 T01131004  RH  044%=      5-min Rain = 0
KPD2 110357Z 21006KT 11/M01 A2948 RMK A01 T01131005  RH  044%=      5-min Rain = 0
KPD2 110358Z 18006KT 11/M01 A2948 RMK A01 T01131005  RH  044%=      5-min Rain = 0
KPD2 110359Z 11004KT 11/M01 A2947 RMK A01 T01121005  RH  044%=      5-min Rain = 0
KPD2 110400Z 13008G15KT 11/M01 A2947 RMK A01 T01121005  RH  044%=      5-min Rain = 0
KPD2 110401Z 18005KT 11/M01 A2947 RMK A01 T01121005  RH  044%=      5-min Rain = 0
KPD2 110402Z 21005KT 11/M01 A2948 RMK A01 T01121005  RH  044%=      5-min Rain = 0
KPD2 110403Z 19008KT 11/M01 A2948 RMK A01 T01111006  RH  044%=      5-min Rain = 0
KPD2 110404Z 14005G11KT 11/M01 A2948 RMK A01 T01111006  RH  044%=      5-min Rain = 0
KPD2 110405Z 23006KT 11/M01 A2948 RMK A01 T01101006  RH  045%=      5-min Rain = 0
KPD2 110406Z 20002KT 11/M01 A2947 RMK A01 T01111005  RH  044%=      5-min Rain = 0
KPD2 110407Z 20004KT 11/M01 A2948 RMK A01 T01121005  RH  044%=      5-min Rain = 0
KPD2 110408Z 19004KT 11/M01 A2948 RMK A01 T01111006  RH  044%=      5-min Rain = 0
KPD2 110409Z 21004KT 11/M01 A2948 RMK A01 T01111006  RH  044%=      5-min Rain = 0
KPD2 110410Z 24008KT 11/M01 A2947 RMK A01 T01121006  RH  044%=      5-min Rain = 0
KPD2 110411Z 16004KT 11/M01 A2947 RMK A01 T01111006  RH  044%=      5-min Rain = 0
KPD2 110412Z 11003KT 11/M01 A2947 RMK A01 T01111006  RH  044%=      5-min Rain = 0
KPD2 110413Z 24005KT 11/M01 A2947 RMK A01 T01091007  RH  044%=      5-min Rain = 0
KPD2 110414Z 17004KT 11/M01 A2947 RMK A01 T01091006  RH  045%=      5-min Rain = 0
KPD2 110415Z 18004KT 11/M01 A2947 RMK A01 T01091007  RH  045%=      5-min Rain = 0
KPD2 110416Z 24004KT 11/M01 A2947 RMK A01 T01101007  RH  044%=      5-min Rain = 0
KPD2 110417Z 16006G12KT 11/M01 A2947 RMK A01 T01101006  RH  044%=      5-min Rain = 0
KPD2 110418Z 22008KT 11/M01 A2947 RMK A01 T01101007  RH  044%=      5-min Rain = 0
KPD2 110419Z 20009KT 11/M01 A2947 RMK A01 T01111007  RH  044%=      5-min Rain = 0
KPD2 110420Z 22007KT 11/M01 A2947 RMK A01 T01111007  RH  044%=      5-min Rain = 0
KPD2 110421Z 21004G9KT 11/M01 A2947 RMK A01 T01121007  RH  044%=      5-min Rain = 0
KPD2 110422Z 22004KT 11/M01 A2947 RMK A01 T01121007  RH  044%=      5-min Rain = 0
KPD2 110423Z 21005G10KT 11/M01 A2947 RMK A01 T01121007  RH  044%=      5-min Rain = 0
KPD2 110424Z 25001KT 11/M01 A2947 RMK A01 T01121007  RH  044%=      5-min Rain = 0
KPD2 110425Z 21004KT 11/M01 A2947 RMK A01 T01111007  RH  044%=      5-min Rain = 0
KPD2 110426Z 19005G11KT 11/M01 A2947 RMK A01 T01101008  RH  044%=      5-min Rain = 0
KPD2 110427Z 18004G9KT 11/M01 A2947 RMK A01 T01101008  RH  044%=      5-min Rain = 0
KPD2 110428Z 22002KT 11/M01 A2947 RMK A01 T01101008  RH  044%=      5-min Rain = 0
KPD2 110429Z 19003KT 11/M01 A2947 RMK A01 T01101007  RH  044%=      5-min Rain = 0
KPD2 110430Z 19007G14KT 11/M01 A2947 RMK A01 T01101008  RH  044%=      5-min Rain = 0
KPD2 110431Z 25004KT 11/M01 A2947 RMK A01 T01101008  RH  044%=      5-min Rain = 0
KPD2 110432Z 20004KT 11/M01 A2947 RMK A01 T01091009  RH  044%=      5-min Rain = 0
KPD2 110433Z 18007KT 11/M01 A2947 RMK A01 T01091008  RH  044%=      5-min Rain = 0
KPD2 110434Z 19007KT 11/M01 A2947 RMK A01 T01091009  RH  044%=      5-min Rain = 0
KPD2 110435Z 20005KT 11/M01 A2947 RMK A01 T01091009  RH  044%=      5-min Rain = 0
KPD2 110436Z 19009G15KT 11/M01 A2947 RMK A01 T01101009  RH  044%=      5-min Rain = 0
KPD2 110437Z 22004KT 11/M01 A2947 RMK A01 T01101009  RH  044%=      5-min Rain = 0
KPD2 110438Z 22006G12KT 11/M01 A2947 RMK A01 T01091009  RH  044%=      5-min Rain = 0
KPD2 110439Z 19010KT 11/M01 A2947 RMK A01 T01091009  RH  044%=      5-min Rain = 0
KPD2 110440Z 21007KT 11/M01 A2947 RMK A01 T01091010  RH  044%=      5-min Rain = 0
KPD2 110441Z 17007KT 11/M01 A2947 RMK A01 T01091010  RH  044%=      5-min Rain = 0
KPD2 110442Z 24009G17KT 11/M01 A2947 RMK A01 T01081010  RH  044%=      5-min Rain = 0
KPD2 110443Z 23005KT 11/M01 A2947 RMK A01 T01071010  RH  044%=      5-min Rain = 0
KPD2 110444Z 23009G14KT 11/M01 A2947 RMK A01 T01071010  RH  044%=      5-min Rain = 0
KPD2 110445Z 20012KT 11/M01 A2947 RMK A01 T01071010  RH  044%=      5-min Rain = 0
KPD2 110446Z 25010G15KT 11/M01 A2947 RMK A01 T01071011  RH  044%=      5-min Rain = 0
KPD2 110447Z 21007G14KT 11/M01 A2947 RMK A01 T01071011  RH  044%=      5-min Rain = 0
KPD2 110448Z 22008G16KT 11/M01 A2947 RMK A01 T01061011  RH  044%=      5-min Rain = 0
KPD2 110449Z 24009G15KT 11/M01 A2947 RMK A01 T01061012  RH  044%=      5-min Rain = 0
KPD2 110450Z 22010KT 11/M01 A2947 RMK A01 T01061012  RH  044%=      5-min Rain = 0
KPD2 110451Z 21009KT 11/M01 A2947 RMK A01 T01061012  RH  044%=      5-min Rain = 0
KPD2 110452Z 21006G16KT 11/M01 A2947 RMK A01 T01061013  RH  044%=      5-min Rain = 0
KPD2 110453Z 21008KT 11/M01 A2947 RMK A01 T01061013  RH  043%=      5-min Rain = 0
KPD2 110454Z 24007G13KT 11/M01 A2947 RMK A01 T01061013  RH  043%=      5-min Rain = 0
KPD2 110455Z 23007G15KT 11/M01 A2947 RMK A01 T01061013  RH  043%=      5-min Rain = 0
KPD2 110456Z 22006KT 11/M01 A2947 RMK A01 T01061013  RH  043%=      5-min Rain = 0
KPD2 110457Z 25005KT 11/M01 A2947 RMK A01 T01061014  RH  043%=      5-min Rain = 0
KPD2 110458Z 22008G13KT 11/M01 A2947 RMK A01 T01051014  RH  044%=      5-min Rain = 0
KPD2 110459Z 22009G14KT 11/M01 A2947 RMK A01 T01051014  RH  043%=      5-min Rain = 0
KPD2 110500Z 23006KT 11/M01 A2947 RMK A01 T01051014  RH  043%=      5-min Rain = 0
KPD2 110501Z 23009G14KT 11/M02 A2947 RMK A01 T01051015  RH  043%=      5-min Rain = 0
KPD2 110502Z 24009KT 11/M02 A2947 RMK A01 T01051015  RH  043%=      5-min Rain = 0
KPD2 110503Z 24007G14KT 11/M02 A2947 RMK A01 T01051015  RH  043%=      5-min Rain = 0
KPD2 110504Z 23010KT 11/M02 A2947 RMK A01 T01051015  RH  043%=      5-min Rain = 0
KPD2 110505Z 23010KT 11/M02 A2946 RMK A01 T01051015  RH  043%=      5-min Rain = 0
KPD2 110506Z 24009G14KT 11/M02 A2947 RMK A01 T01051016  RH  043%=      5-min Rain = 0
KPD2 110507Z 23012KT 11/M02 A2946 RMK A01 T01051016  RH  043%=      5-min Rain = 0
KPD2 110508Z 24010G15KT 11/M02 A2946 RMK A01 T01061016  RH  043%=      5-min Rain = 0
KPD2 110509Z 25009G15KT 11/M02 A2946 RMK A01 T01071016  RH  042%=      5-min Rain = 0
KPD2 110510Z 24010KT 11/M02 A2946 RMK A01 T01071017  RH  042%=      5-min Rain = 0
KPD2 110511Z 25008KT 11/M02 A2946 RMK A01 T01071017  RH  042%=      5-min Rain = 0
KPD2 110512Z 22010KT 11/M02 A2946 RMK A01 T01071017  RH  042%=      5-min Rain = 0
KPD2 110513Z 24013G18KT 11/M02 A2947 RMK A01 T01071017  RH  042%=      5-min Rain = 0
KPD2 110514Z 24014KT 11/M02 A2946 RMK A01 T01071017  RH  042%=      5-min Rain = 0
KPD2 110515Z 23012G17KT 11/M02 A2946 RMK A01 T01071017  RH  042%=      5-min Rain = 0
KPD2 110516Z 25010G15KT 11/M02 A2946 RMK A01 T01061018  RH  042%=      5-min Rain = 0
KPD2 110517Z 24010G16KT 11/M02 A2946 RMK A01 T01061018  RH  042%=      5-min Rain = 0
KPD2 110518Z 23008KT 11/M02 A2946 RMK A01 T01061018  RH  042%=      5-min Rain = 0
KPD2 110519Z 25010G15KT 11/M02 A2946 RMK A01 T01071018  RH  042%=      5-min Rain = 0
KPD2 110520Z 24009G15KT 11/M02 A2946 RMK A01 T01061018  RH  042%=      5-min Rain = 0
KPD2 110521Z 24006KT 11/M02 A2946 RMK A01 T01061018  RH  042%=      5-min Rain = 0
KPD2 110522Z 24009G15KT 11/M02 A2946 RMK A01 T01071018  RH  042%=      5-min Rain = 0
KPD2 110523Z 24009G16KT 11/M02 A2946 RMK A01 T01061018  RH  042%=      5-min Rain = 0
KPD2 110524Z 24008G15KT 11/M02 A2946 RMK A01 T01061019  RH  042%=      5-min Rain = 0
KPD2 110525Z 24011KT 11/M02 A2946 RMK A01 T01061019  RH  042%=      5-min Rain = 0
KPD2 110526Z 24009KT 11/M02 A2946 RMK A01 T01061019  RH  042%=      5-min Rain = 0
KPD2 110527Z 22007G19KT 11/M02 A2946 RMK A01 T01051019  RH  042%=      5-min Rain = 0
KPD2 110528Z 23013KT 11/M02 A2946 RMK A01 T01051019  RH  042%=      5-min Rain = 0
KPD2 110529Z 24013G19KT 11/M02 A2946 RMK A01 T01051019  RH  042%=      5-min Rain = 0
KPD2 110530Z 24008G14KT 11/M02 A2946 RMK A01 T01051019  RH  042%=      5-min Rain = 0
KPD2 110531Z 24004KT 11/M02 A2946 RMK A01 T01051019  RH  042%=      5-min Rain = 0
KPD2 110532Z 26005KT 11/M02 A2946 RMK A01 T01051019  RH  042%=      5-min Rain = 0
KPD2 110533Z 23007G13KT 10/M02 A2946 RMK A01 T01041019  RH  042%=      5-min Rain = 0
KPD2 110534Z 23002KT 10/M02 A2946 RMK A01 T01041019  RH  042%=      5-min Rain = 0
KPD2 110535Z 26008G14KT 10/M02 A2946 RMK A01 T01041020  RH  042%=      5-min Rain = 0
KPD2 110536Z 27004G9KT 10/M02 A2946 RMK A01 T01041019  RH  042%=      5-min Rain = 0
KPD2 110537Z 26008G16KT 10/M02 A2946 RMK A01 T01041020  RH  042%=      5-min Rain = 0
KPD2 110538Z 26010KT 10/M02 A2946 RMK A01 T01031020  RH  042%=      5-min Rain = 0
KPD2 110539Z 23009KT 10/M02 A2946 RMK A01 T01041020  RH  042%=      5-min Rain = 0
KPD2 110540Z 26012G18KT 10/M02 A2945 RMK A01 T01041020  RH  042%=      5-min Rain = 0
KPD2 110541Z 24009G14KT 10/M02 A2945 RMK A01 T01041020  RH  042%=      5-min Rain = 0
KPD2 110542Z 26010G17KT 11/M02 A2946 RMK A01 T01051020  RH  042%=      5-min Rain = 0
KPD2 110543Z 25009G18KT 11/M02 A2945 RMK A01 T01051021  RH  041%=      5-min Rain = 0
KPD2 110544Z 23006G12KT 11/M02 A2945 RMK A01 T01051021  RH  041%=      5-min Rain = 0
KPD2 110545Z 28008G14KT 11/M02 A2945 RMK A01 T01051021  RH  041%=      5-min Rain = 0
KPD2 110546Z 29005KT 11/M02 A2945 RMK A01 T01051021  RH  041%=      5-min Rain = 0
KPD2 110547Z 26006G13KT 10/M02 A2945 RMK A01 T01041022  RH  042%=      5-min Rain = 0
KPD2 110548Z 28005KT 10/M02 A2945 RMK A01 T01031022  RH  042%=      5-min Rain = 0
KPD2 110549Z 26007G13KT 10/M02 A2945 RMK A01 T01031021  RH  042%=      5-min Rain = 0
KPD2 110550Z 27012KT 10/M02 A2945 RMK A01 T01031021  RH  042%=      5-min Rain = 0
KPD2 110551Z 27010KT 10/M02 A2945 RMK A01 T01031022  RH  042%=      5-min Rain = 0
KPD2 110552Z 29008KT 10/M02 A2945 RMK A01 T01031022  RH  042%=      5-min Rain = 0
KPD2 110553Z 26006G11KT 10/M02 A2945 RMK A01 T01031022  RH  042%=      5-min Rain = 0
KPD2 110554Z 27012G17KT 10/M02 A2945 RMK A01 T01031022  RH  042%=      5-min Rain = 0
KPD2 110555Z 30009KT 10/M02 A2945 RMK A01 T01031022  RH  042%=      5-min Rain = 0
KPD2 110556Z 27006KT 10/M02 A2945 RMK A01 T01021022  RH  042%=      5-min Rain = 0
KPD2 110557Z 26006G13KT 10/M02 A2945 RMK A01 T01021022  RH  042%=      5-min Rain = 0
KPD2 110558Z 22005KT 10/M02 A2945 RMK A01 T01021022  RH  042%=      5-min Rain = 0
KPD2 110559Z 29004KT 10/M02 A2945 RMK A01 T01021022  RH  042%=      5-min Rain = 0

Page generated in 0.0864 seconds.